<?xml version="1.0" encoding="UTF-8" standalone="no" ?>
<gpx xmlns="http://www.topografix.com/GPX/1/1" xmlns:xsi="http://www.w3.org/2001/XMLSchema-instance" xsi:schemaLocation="http://www.topografix.com/GPX/1/1 http://www.topografix.com/GPX/1/1/gpx.xsd" version="1.1" creator="VisuGPX - https://www.visugpx.com">
  <metadata>
    <name>étang de l or</name>
  </metadata>
  <trk>
    <name><![CDATA[randogps34-574]]></name>
    <trkseg>
      <trkpt lat="43.61819" lon="4.06812">
        <ele>18.88</ele>
        <time>2016-09-20T08:00:10Z</time>
      </trkpt>
      <trkpt lat="43.61841" lon="4.06806">
        <ele>9.75</ele>
        <time>2016-09-20T08:00:42Z</time>
      </trkpt>
      <trkpt lat="43.61842" lon="4.06803">
        <ele>10.23</ele>
        <time>2016-09-20T08:01:00Z</time>
      </trkpt>
      <trkpt lat="43.61841" lon="4.06798">
        <ele>12.63</ele>
        <time>2016-09-20T08:01:21Z</time>
      </trkpt>
      <trkpt lat="43.6184" lon="4.06793">
        <ele>13.12</ele>
        <time>2016-09-20T08:01:42Z</time>
      </trkpt>
      <trkpt lat="43.61841" lon="4.06794">
        <ele>15.04</ele>
        <time>2016-09-20T08:02:04Z</time>
      </trkpt>
      <trkpt lat="43.61841" lon="4.06797">
        <ele>15.52</ele>
        <time>2016-09-20T08:02:24Z</time>
      </trkpt>
      <trkpt lat="43.6184" lon="4.06799">
        <ele>15.04</ele>
        <time>2016-09-20T08:02:47Z</time>
      </trkpt>
      <trkpt lat="43.61843" lon="4.06799">
        <ele>13.6</ele>
        <time>2016-09-20T08:03:10Z</time>
      </trkpt>
      <trkpt lat="43.61843" lon="4.068">
        <ele>12.63</ele>
        <time>2016-09-20T08:03:34Z</time>
      </trkpt>
      <trkpt lat="43.61842" lon="4.068">
        <ele>12.15</ele>
        <time>2016-09-20T08:03:55Z</time>
      </trkpt>
      <trkpt lat="43.61842" lon="4.06795">
        <ele>10.71</ele>
        <time>2016-09-20T08:04:22Z</time>
      </trkpt>
      <trkpt lat="43.61836" lon="4.06799">
        <ele>10.71</ele>
        <time>2016-09-20T08:04:40Z</time>
      </trkpt>
      <trkpt lat="43.61826" lon="4.06799">
        <ele>10.23</ele>
        <time>2016-09-20T08:04:57Z</time>
      </trkpt>
      <trkpt lat="43.6181" lon="4.06796">
        <ele>8.79</ele>
        <time>2016-09-20T08:05:21Z</time>
      </trkpt>
      <trkpt lat="43.61807" lon="4.06793">
        <ele>8.31</ele>
        <time>2016-09-20T08:05:25Z</time>
      </trkpt>
      <trkpt lat="43.61787" lon="4.06774">
        <ele>6.39</ele>
        <time>2016-09-20T08:05:48Z</time>
      </trkpt>
      <trkpt lat="43.61771" lon="4.06752">
        <ele>4.46</ele>
        <time>2016-09-20T08:06:10Z</time>
      </trkpt>
      <trkpt lat="43.61758" lon="4.06733">
        <ele>4.46</ele>
        <time>2016-09-20T08:06:32Z</time>
      </trkpt>
      <trkpt lat="43.61745" lon="4.06716">
        <ele>2.54</ele>
        <time>2016-09-20T08:06:51Z</time>
      </trkpt>
      <trkpt lat="43.61729" lon="4.06691">
        <ele>1.1</ele>
        <time>2016-09-20T08:07:14Z</time>
      </trkpt>
      <trkpt lat="43.61714" lon="4.06672">
        <ele>2.06</ele>
        <time>2016-09-20T08:07:34Z</time>
      </trkpt>
      <trkpt lat="43.617" lon="4.06655">
        <ele>-0.34</ele>
        <time>2016-09-20T08:07:53Z</time>
      </trkpt>
      <trkpt lat="43.61697" lon="4.0665">
        <ele>-0.82</ele>
        <time>2016-09-20T08:07:57Z</time>
      </trkpt>
      <trkpt lat="43.61682" lon="4.06642">
        <ele>0.14</ele>
        <time>2016-09-20T08:08:11Z</time>
      </trkpt>
      <trkpt lat="43.6166" lon="4.06647">
        <ele>3.02</ele>
        <time>2016-09-20T08:08:30Z</time>
      </trkpt>
      <trkpt lat="43.61642" lon="4.06666">
        <ele>3.98</ele>
        <time>2016-09-20T08:08:48Z</time>
      </trkpt>
      <trkpt lat="43.61632" lon="4.0668">
        <ele>4.46</ele>
        <time>2016-09-20T08:09:02Z</time>
      </trkpt>
      <trkpt lat="43.61617" lon="4.06697">
        <ele>3.5</ele>
        <time>2016-09-20T08:09:20Z</time>
      </trkpt>
      <trkpt lat="43.616" lon="4.06717">
        <ele>2.06</ele>
        <time>2016-09-20T08:09:40Z</time>
      </trkpt>
      <trkpt lat="43.61584" lon="4.06734">
        <ele>2.06</ele>
        <time>2016-09-20T08:09:59Z</time>
      </trkpt>
      <trkpt lat="43.61566" lon="4.06743">
        <ele>4.46</ele>
        <time>2016-09-20T08:10:16Z</time>
      </trkpt>
      <trkpt lat="43.61545" lon="4.06745">
        <ele>4.46</ele>
        <time>2016-09-20T08:10:36Z</time>
      </trkpt>
      <trkpt lat="43.61522" lon="4.06743">
        <ele>3.5</ele>
        <time>2016-09-20T08:10:57Z</time>
      </trkpt>
      <trkpt lat="43.615" lon="4.06744">
        <ele>4.46</ele>
        <time>2016-09-20T08:11:16Z</time>
      </trkpt>
      <trkpt lat="43.61479" lon="4.0674">
        <ele>3.98</ele>
        <time>2016-09-20T08:11:35Z</time>
      </trkpt>
      <trkpt lat="43.61459" lon="4.06728">
        <ele>2.54</ele>
        <time>2016-09-20T08:11:53Z</time>
      </trkpt>
      <trkpt lat="43.61445" lon="4.06715">
        <ele>1.58</ele>
        <time>2016-09-20T08:12:10Z</time>
      </trkpt>
      <trkpt lat="43.6144" lon="4.06708">
        <ele>2.06</ele>
        <time>2016-09-20T08:12:25Z</time>
      </trkpt>
      <trkpt lat="43.61427" lon="4.06691">
        <ele>2.06</ele>
        <time>2016-09-20T08:12:43Z</time>
      </trkpt>
      <trkpt lat="43.61419" lon="4.0668">
        <ele>2.06</ele>
        <time>2016-09-20T08:12:53Z</time>
      </trkpt>
      <trkpt lat="43.61409" lon="4.06663">
        <ele>2.06</ele>
        <time>2016-09-20T08:13:08Z</time>
      </trkpt>
      <trkpt lat="43.61402" lon="4.06648">
        <ele>2.54</ele>
        <time>2016-09-20T08:13:24Z</time>
      </trkpt>
      <trkpt lat="43.61391" lon="4.06624">
        <ele>2.54</ele>
        <time>2016-09-20T08:13:41Z</time>
      </trkpt>
      <trkpt lat="43.61381" lon="4.06601">
        <ele>1.58</ele>
        <time>2016-09-20T08:13:57Z</time>
      </trkpt>
      <trkpt lat="43.61369" lon="4.0658">
        <ele>1.58</ele>
        <time>2016-09-20T08:14:15Z</time>
      </trkpt>
      <trkpt lat="43.61366" lon="4.0658">
        <ele>1.58</ele>
        <time>2016-09-20T08:14:17Z</time>
      </trkpt>
      <trkpt lat="43.61355" lon="4.06581">
        <ele>1.1</ele>
        <time>2016-09-20T08:14:32Z</time>
      </trkpt>
      <trkpt lat="43.61338" lon="4.06592">
        <ele>3.5</ele>
        <time>2016-09-20T08:14:48Z</time>
      </trkpt>
      <trkpt lat="43.6132" lon="4.06605">
        <ele>4.46</ele>
        <time>2016-09-20T08:15:05Z</time>
      </trkpt>
      <trkpt lat="43.61302" lon="4.06616">
        <ele>4.94</ele>
        <time>2016-09-20T08:15:21Z</time>
      </trkpt>
      <trkpt lat="43.61284" lon="4.06634">
        <ele>5.91</ele>
        <time>2016-09-20T08:15:39Z</time>
      </trkpt>
      <trkpt lat="43.61267" lon="4.06647">
        <ele>6.87</ele>
        <time>2016-09-20T08:15:57Z</time>
      </trkpt>
      <trkpt lat="43.61254" lon="4.06656">
        <ele>5.42</ele>
        <time>2016-09-20T08:16:12Z</time>
      </trkpt>
      <trkpt lat="43.61247" lon="4.06651">
        <ele>3.98</ele>
        <time>2016-09-20T08:16:29Z</time>
      </trkpt>
      <trkpt lat="43.61246" lon="4.0665">
        <ele>5.42</ele>
        <time>2016-09-20T08:16:58Z</time>
      </trkpt>
      <trkpt lat="43.61244" lon="4.06653">
        <ele>3.02</ele>
        <time>2016-09-20T08:17:25Z</time>
      </trkpt>
      <trkpt lat="43.61242" lon="4.06662">
        <ele>3.98</ele>
        <time>2016-09-20T08:17:49Z</time>
      </trkpt>
      <trkpt lat="43.61239" lon="4.06667">
        <ele>3.98</ele>
        <time>2016-09-20T08:17:54Z</time>
      </trkpt>
      <trkpt lat="43.61226" lon="4.06685">
        <ele>3.5</ele>
        <time>2016-09-20T08:18:13Z</time>
      </trkpt>
      <trkpt lat="43.61213" lon="4.06699">
        <ele>3.02</ele>
        <time>2016-09-20T08:18:29Z</time>
      </trkpt>
      <trkpt lat="43.61201" lon="4.06713">
        <ele>2.06</ele>
        <time>2016-09-20T08:18:45Z</time>
      </trkpt>
      <trkpt lat="43.61194" lon="4.0672">
        <ele>2.54</ele>
        <time>2016-09-20T08:18:59Z</time>
      </trkpt>
      <trkpt lat="43.61192" lon="4.06723">
        <ele>2.54</ele>
        <time>2016-09-20T08:19:03Z</time>
      </trkpt>
      <trkpt lat="43.61179" lon="4.06739">
        <ele>3.5</ele>
        <time>2016-09-20T08:19:19Z</time>
      </trkpt>
      <trkpt lat="43.61173" lon="4.06748">
        <ele>4.46</ele>
        <time>2016-09-20T08:19:34Z</time>
      </trkpt>
      <trkpt lat="43.61156" lon="4.06766">
        <ele>5.42</ele>
        <time>2016-09-20T08:19:52Z</time>
      </trkpt>
      <trkpt lat="43.61137" lon="4.06782">
        <ele>5.91</ele>
        <time>2016-09-20T08:20:10Z</time>
      </trkpt>
      <trkpt lat="43.61124" lon="4.06787">
        <ele>4.46</ele>
        <time>2016-09-20T08:20:23Z</time>
      </trkpt>
      <trkpt lat="43.611" lon="4.0679">
        <ele>1.58</ele>
        <time>2016-09-20T08:20:44Z</time>
      </trkpt>
      <trkpt lat="43.61075" lon="4.06791">
        <ele>1.58</ele>
        <time>2016-09-20T08:21:06Z</time>
      </trkpt>
      <trkpt lat="43.61049" lon="4.0679">
        <ele>3.02</ele>
        <time>2016-09-20T08:21:28Z</time>
      </trkpt>
      <trkpt lat="43.61032" lon="4.06774">
        <ele>3.98</ele>
        <time>2016-09-20T08:21:46Z</time>
      </trkpt>
      <trkpt lat="43.61028" lon="4.06752">
        <ele>5.42</ele>
        <time>2016-09-20T08:22:03Z</time>
      </trkpt>
      <trkpt lat="43.61021" lon="4.06726">
        <ele>4.46</ele>
        <time>2016-09-20T08:22:22Z</time>
      </trkpt>
      <trkpt lat="43.61012" lon="4.06693">
        <ele>3.02</ele>
        <time>2016-09-20T08:22:45Z</time>
      </trkpt>
      <trkpt lat="43.61004" lon="4.06666">
        <ele>-0.34</ele>
        <time>2016-09-20T08:23:04Z</time>
      </trkpt>
      <trkpt lat="43.60997" lon="4.06643">
        <ele>-1.79</ele>
        <time>2016-09-20T08:23:21Z</time>
      </trkpt>
      <trkpt lat="43.6099" lon="4.06623">
        <ele>-0.82</ele>
        <time>2016-09-20T08:23:36Z</time>
      </trkpt>
      <trkpt lat="43.60976" lon="4.06604">
        <ele>1.1</ele>
        <time>2016-09-20T08:23:54Z</time>
      </trkpt>
      <trkpt lat="43.60956" lon="4.06596">
        <ele>0.14</ele>
        <time>2016-09-20T08:24:15Z</time>
      </trkpt>
      <trkpt lat="43.60936" lon="4.06602">
        <ele>2.06</ele>
        <time>2016-09-20T08:24:33Z</time>
      </trkpt>
      <trkpt lat="43.60918" lon="4.06612">
        <ele>3.98</ele>
        <time>2016-09-20T08:24:50Z</time>
      </trkpt>
      <trkpt lat="43.60901" lon="4.06622">
        <ele>4.94</ele>
        <time>2016-09-20T08:25:06Z</time>
      </trkpt>
      <trkpt lat="43.60889" lon="4.06631">
        <ele>4.94</ele>
        <time>2016-09-20T08:25:18Z</time>
      </trkpt>
      <trkpt lat="43.60885" lon="4.06634">
        <ele>4.94</ele>
        <time>2016-09-20T08:25:22Z</time>
      </trkpt>
      <trkpt lat="43.60875" lon="4.06644">
        <ele>4.46</ele>
        <time>2016-09-20T08:25:33Z</time>
      </trkpt>
      <trkpt lat="43.60875" lon="4.06669">
        <ele>2.06</ele>
        <time>2016-09-20T08:25:48Z</time>
      </trkpt>
      <trkpt lat="43.60886" lon="4.06691">
        <ele>1.1</ele>
        <time>2016-09-20T08:26:05Z</time>
      </trkpt>
      <trkpt lat="43.60897" lon="4.06722">
        <ele>0.62</ele>
        <time>2016-09-20T08:26:27Z</time>
      </trkpt>
      <trkpt lat="43.60905" lon="4.06744">
        <ele>-0.82</ele>
        <time>2016-09-20T08:26:45Z</time>
      </trkpt>
      <trkpt lat="43.60906" lon="4.06743">
        <ele>0.62</ele>
        <time>2016-09-20T08:27:06Z</time>
      </trkpt>
      <trkpt lat="43.60906" lon="4.06742">
        <ele>3.02</ele>
        <time>2016-09-20T08:27:28Z</time>
      </trkpt>
      <trkpt lat="43.60905" lon="4.06742">
        <ele>2.54</ele>
        <time>2016-09-20T08:27:55Z</time>
      </trkpt>
      <trkpt lat="43.60906" lon="4.06744">
        <ele>2.54</ele>
        <time>2016-09-20T08:28:24Z</time>
      </trkpt>
      <trkpt lat="43.60906" lon="4.06745">
        <ele>3.02</ele>
        <time>2016-09-20T08:28:42Z</time>
      </trkpt>
      <trkpt lat="43.60901" lon="4.06753">
        <ele>2.54</ele>
        <time>2016-09-20T08:28:59Z</time>
      </trkpt>
      <trkpt lat="43.60885" lon="4.06766">
        <ele>3.5</ele>
        <time>2016-09-20T08:29:19Z</time>
      </trkpt>
      <trkpt lat="43.60871" lon="4.06775">
        <ele>3.02</ele>
        <time>2016-09-20T08:29:35Z</time>
      </trkpt>
      <trkpt lat="43.60857" lon="4.06786">
        <ele>3.02</ele>
        <time>2016-09-20T08:29:52Z</time>
      </trkpt>
      <trkpt lat="43.60841" lon="4.06797">
        <ele>2.54</ele>
        <time>2016-09-20T08:30:09Z</time>
      </trkpt>
      <trkpt lat="43.60827" lon="4.06807">
        <ele>2.54</ele>
        <time>2016-09-20T08:30:24Z</time>
      </trkpt>
      <trkpt lat="43.60812" lon="4.06818">
        <ele>4.46</ele>
        <time>2016-09-20T08:30:40Z</time>
      </trkpt>
      <trkpt lat="43.60797" lon="4.0683">
        <ele>4.94</ele>
        <time>2016-09-20T08:30:57Z</time>
      </trkpt>
      <trkpt lat="43.60782" lon="4.06841">
        <ele>4.46</ele>
        <time>2016-09-20T08:31:15Z</time>
      </trkpt>
      <trkpt lat="43.60769" lon="4.0685">
        <ele>4.46</ele>
        <time>2016-09-20T08:31:30Z</time>
      </trkpt>
      <trkpt lat="43.60755" lon="4.0686">
        <ele>4.94</ele>
        <time>2016-09-20T08:31:46Z</time>
      </trkpt>
      <trkpt lat="43.6074" lon="4.06874">
        <ele>4.46</ele>
        <time>2016-09-20T08:32:05Z</time>
      </trkpt>
      <trkpt lat="43.60723" lon="4.06886">
        <ele>4.46</ele>
        <time>2016-09-20T08:32:24Z</time>
      </trkpt>
      <trkpt lat="43.60707" lon="4.06897">
        <ele>3.98</ele>
        <time>2016-09-20T08:32:44Z</time>
      </trkpt>
      <trkpt lat="43.60691" lon="4.06909">
        <ele>4.94</ele>
        <time>2016-09-20T08:33:04Z</time>
      </trkpt>
      <trkpt lat="43.60675" lon="4.06922">
        <ele>4.94</ele>
        <time>2016-09-20T08:33:23Z</time>
      </trkpt>
      <trkpt lat="43.60662" lon="4.06934">
        <ele>5.91</ele>
        <time>2016-09-20T08:33:41Z</time>
      </trkpt>
      <trkpt lat="43.60645" lon="4.06945">
        <ele>5.42</ele>
        <time>2016-09-20T08:33:58Z</time>
      </trkpt>
      <trkpt lat="43.60631" lon="4.06955">
        <ele>6.39</ele>
        <time>2016-09-20T08:34:16Z</time>
      </trkpt>
      <trkpt lat="43.60622" lon="4.06962">
        <ele>5.91</ele>
        <time>2016-09-20T08:34:32Z</time>
      </trkpt>
      <trkpt lat="43.60608" lon="4.0697">
        <ele>4.94</ele>
        <time>2016-09-20T08:34:50Z</time>
      </trkpt>
      <trkpt lat="43.60593" lon="4.06982">
        <ele>5.42</ele>
        <time>2016-09-20T08:35:08Z</time>
      </trkpt>
      <trkpt lat="43.60579" lon="4.06992">
        <ele>5.91</ele>
        <time>2016-09-20T08:35:26Z</time>
      </trkpt>
      <trkpt lat="43.60571" lon="4.06998">
        <ele>6.87</ele>
        <time>2016-09-20T08:35:42Z</time>
      </trkpt>
      <trkpt lat="43.60568" lon="4.07">
        <ele>5.42</ele>
        <time>2016-09-20T08:36:00Z</time>
      </trkpt>
      <trkpt lat="43.60555" lon="4.0701">
        <ele>6.39</ele>
        <time>2016-09-20T08:36:21Z</time>
      </trkpt>
      <trkpt lat="43.60545" lon="4.07018">
        <ele>6.87</ele>
        <time>2016-09-20T08:36:39Z</time>
      </trkpt>
      <trkpt lat="43.60533" lon="4.07028">
        <ele>6.39</ele>
        <time>2016-09-20T08:36:56Z</time>
      </trkpt>
      <trkpt lat="43.60519" lon="4.07036">
        <ele>6.87</ele>
        <time>2016-09-20T08:37:11Z</time>
      </trkpt>
      <trkpt lat="43.60507" lon="4.07046">
        <ele>5.91</ele>
        <time>2016-09-20T08:37:27Z</time>
      </trkpt>
      <trkpt lat="43.60492" lon="4.07056">
        <ele>5.42</ele>
        <time>2016-09-20T08:37:45Z</time>
      </trkpt>
      <trkpt lat="43.60478" lon="4.07068">
        <ele>5.42</ele>
        <time>2016-09-20T08:38:04Z</time>
      </trkpt>
      <trkpt lat="43.60467" lon="4.07075">
        <ele>5.42</ele>
        <time>2016-09-20T08:38:21Z</time>
      </trkpt>
      <trkpt lat="43.60454" lon="4.07084">
        <ele>4.94</ele>
        <time>2016-09-20T08:38:38Z</time>
      </trkpt>
      <trkpt lat="43.60447" lon="4.0709">
        <ele>3.98</ele>
        <time>2016-09-20T08:38:55Z</time>
      </trkpt>
      <trkpt lat="43.60432" lon="4.07101">
        <ele>4.46</ele>
        <time>2016-09-20T08:39:14Z</time>
      </trkpt>
      <trkpt lat="43.60419" lon="4.07111">
        <ele>4.46</ele>
        <time>2016-09-20T08:39:34Z</time>
      </trkpt>
      <trkpt lat="43.60404" lon="4.07122">
        <ele>4.94</ele>
        <time>2016-09-20T08:39:53Z</time>
      </trkpt>
      <trkpt lat="43.60391" lon="4.07132">
        <ele>5.42</ele>
        <time>2016-09-20T08:40:10Z</time>
      </trkpt>
      <trkpt lat="43.60376" lon="4.07143">
        <ele>4.46</ele>
        <time>2016-09-20T08:40:27Z</time>
      </trkpt>
      <trkpt lat="43.60359" lon="4.07153">
        <ele>3.5</ele>
        <time>2016-09-20T08:40:47Z</time>
      </trkpt>
      <trkpt lat="43.60346" lon="4.07164">
        <ele>4.46</ele>
        <time>2016-09-20T08:41:05Z</time>
      </trkpt>
      <trkpt lat="43.60333" lon="4.07173">
        <ele>5.91</ele>
        <time>2016-09-20T08:41:20Z</time>
      </trkpt>
      <trkpt lat="43.60319" lon="4.07184">
        <ele>7.35</ele>
        <time>2016-09-20T08:41:36Z</time>
      </trkpt>
      <trkpt lat="43.60303" lon="4.07194">
        <ele>9.27</ele>
        <time>2016-09-20T08:41:55Z</time>
      </trkpt>
      <trkpt lat="43.60302" lon="4.07185">
        <ele>9.27</ele>
        <time>2016-09-20T08:42:12Z</time>
      </trkpt>
      <trkpt lat="43.60297" lon="4.07173">
        <ele>7.35</ele>
        <time>2016-09-20T08:42:27Z</time>
      </trkpt>
      <trkpt lat="43.60294" lon="4.07174">
        <ele>4.94</ele>
        <time>2016-09-20T08:42:42Z</time>
      </trkpt>
      <trkpt lat="43.60292" lon="4.07171">
        <ele>3.5</ele>
        <time>2016-09-20T08:43:08Z</time>
      </trkpt>
      <trkpt lat="43.60291" lon="4.0717">
        <ele>3.02</ele>
        <time>2016-09-20T08:43:33Z</time>
      </trkpt>
      <trkpt lat="43.60292" lon="4.07171">
        <ele>3.02</ele>
        <time>2016-09-20T08:43:53Z</time>
      </trkpt>
      <trkpt lat="43.60292" lon="4.07177">
        <ele>1.58</ele>
        <time>2016-09-20T08:44:21Z</time>
      </trkpt>
      <trkpt lat="43.60294" lon="4.07185">
        <ele>0.14</ele>
        <time>2016-09-20T08:44:33Z</time>
      </trkpt>
      <trkpt lat="43.60293" lon="4.07185">
        <ele>-0.82</ele>
        <time>2016-09-20T08:44:52Z</time>
      </trkpt>
      <trkpt lat="43.60294" lon="4.07185">
        <ele>-0.82</ele>
        <time>2016-09-20T08:45:11Z</time>
      </trkpt>
      <trkpt lat="43.60294" lon="4.0718">
        <ele>-1.79</ele>
        <time>2016-09-20T08:45:28Z</time>
      </trkpt>
      <trkpt lat="43.60293" lon="4.07178">
        <ele>-0.82</ele>
        <time>2016-09-20T08:45:45Z</time>
      </trkpt>
      <trkpt lat="43.60292" lon="4.07177">
        <ele>-0.34</ele>
        <time>2016-09-20T08:46:03Z</time>
      </trkpt>
      <trkpt lat="43.60294" lon="4.07173">
        <ele>1.58</ele>
        <time>2016-09-20T08:46:23Z</time>
      </trkpt>
      <trkpt lat="43.603" lon="4.07175">
        <ele>3.5</ele>
        <time>2016-09-20T08:46:38Z</time>
      </trkpt>
      <trkpt lat="43.60301" lon="4.07197">
        <ele>4.94</ele>
        <time>2016-09-20T08:46:56Z</time>
      </trkpt>
      <trkpt lat="43.60297" lon="4.07208">
        <ele>5.91</ele>
        <time>2016-09-20T08:47:13Z</time>
      </trkpt>
      <trkpt lat="43.60297" lon="4.07218">
        <ele>3.5</ele>
        <time>2016-09-20T08:47:28Z</time>
      </trkpt>
      <trkpt lat="43.60297" lon="4.07217">
        <ele>3.5</ele>
        <time>2016-09-20T08:47:47Z</time>
      </trkpt>
      <trkpt lat="43.603" lon="4.0722">
        <ele>2.54</ele>
        <time>2016-09-20T08:48:08Z</time>
      </trkpt>
      <trkpt lat="43.60312" lon="4.07233">
        <ele>2.06</ele>
        <time>2016-09-20T08:48:28Z</time>
      </trkpt>
      <trkpt lat="43.60322" lon="4.07244">
        <ele>2.06</ele>
        <time>2016-09-20T08:48:46Z</time>
      </trkpt>
      <trkpt lat="43.60331" lon="4.07257">
        <ele>2.06</ele>
        <time>2016-09-20T08:49:03Z</time>
      </trkpt>
      <trkpt lat="43.60343" lon="4.07271">
        <ele>3.02</ele>
        <time>2016-09-20T08:49:22Z</time>
      </trkpt>
      <trkpt lat="43.60354" lon="4.07282">
        <ele>3.02</ele>
        <time>2016-09-20T08:49:39Z</time>
      </trkpt>
      <trkpt lat="43.60363" lon="4.07291">
        <ele>2.06</ele>
        <time>2016-09-20T08:49:55Z</time>
      </trkpt>
      <trkpt lat="43.60374" lon="4.07304">
        <ele>3.02</ele>
        <time>2016-09-20T08:50:11Z</time>
      </trkpt>
      <trkpt lat="43.60381" lon="4.07314">
        <ele>3.02</ele>
        <time>2016-09-20T08:50:26Z</time>
      </trkpt>
      <trkpt lat="43.60393" lon="4.07326">
        <ele>3.5</ele>
        <time>2016-09-20T08:50:42Z</time>
      </trkpt>
      <trkpt lat="43.60402" lon="4.07338">
        <ele>3.02</ele>
        <time>2016-09-20T08:50:57Z</time>
      </trkpt>
      <trkpt lat="43.6041" lon="4.07347">
        <ele>2.54</ele>
        <time>2016-09-20T08:51:14Z</time>
      </trkpt>
      <trkpt lat="43.60421" lon="4.07359">
        <ele>2.54</ele>
        <time>2016-09-20T08:51:31Z</time>
      </trkpt>
      <trkpt lat="43.60436" lon="4.07374">
        <ele>2.54</ele>
        <time>2016-09-20T08:51:50Z</time>
      </trkpt>
      <trkpt lat="43.60449" lon="4.07392">
        <ele>1.58</ele>
        <time>2016-09-20T08:52:09Z</time>
      </trkpt>
      <trkpt lat="43.60464" lon="4.07406">
        <ele>2.06</ele>
        <time>2016-09-20T08:52:28Z</time>
      </trkpt>
      <trkpt lat="43.60477" lon="4.07422">
        <ele>2.54</ele>
        <time>2016-09-20T08:52:47Z</time>
      </trkpt>
      <trkpt lat="43.60491" lon="4.07438">
        <ele>1.1</ele>
        <time>2016-09-20T08:53:05Z</time>
      </trkpt>
      <trkpt lat="43.60503" lon="4.07452">
        <ele>0.62</ele>
        <time>2016-09-20T08:53:22Z</time>
      </trkpt>
      <trkpt lat="43.60516" lon="4.07466">
        <ele>0.62</ele>
        <time>2016-09-20T08:53:41Z</time>
      </trkpt>
      <trkpt lat="43.6053" lon="4.07481">
        <ele>1.1</ele>
        <time>2016-09-20T08:53:58Z</time>
      </trkpt>
      <trkpt lat="43.60539" lon="4.07491">
        <ele>2.06</ele>
        <time>2016-09-20T08:54:14Z</time>
      </trkpt>
      <trkpt lat="43.60554" lon="4.07508">
        <ele>2.54</ele>
        <time>2016-09-20T08:54:32Z</time>
      </trkpt>
      <trkpt lat="43.60567" lon="4.07524">
        <ele>3.5</ele>
        <time>2016-09-20T08:54:51Z</time>
      </trkpt>
      <trkpt lat="43.60579" lon="4.07537">
        <ele>3.98</ele>
        <time>2016-09-20T08:55:08Z</time>
      </trkpt>
      <trkpt lat="43.60593" lon="4.07555">
        <ele>3.98</ele>
        <time>2016-09-20T08:55:27Z</time>
      </trkpt>
      <trkpt lat="43.60607" lon="4.07572">
        <ele>3.98</ele>
        <time>2016-09-20T08:55:46Z</time>
      </trkpt>
      <trkpt lat="43.60618" lon="4.07582">
        <ele>3.02</ele>
        <time>2016-09-20T08:56:01Z</time>
      </trkpt>
      <trkpt lat="43.60631" lon="4.07594">
        <ele>1.58</ele>
        <time>2016-09-20T08:56:18Z</time>
      </trkpt>
      <trkpt lat="43.60642" lon="4.07607">
        <ele>1.58</ele>
        <time>2016-09-20T08:56:35Z</time>
      </trkpt>
      <trkpt lat="43.60648" lon="4.07616">
        <ele>1.58</ele>
        <time>2016-09-20T08:56:51Z</time>
      </trkpt>
      <trkpt lat="43.60649" lon="4.07614">
        <ele>2.54</ele>
        <time>2016-09-20T08:57:20Z</time>
      </trkpt>
      <trkpt lat="43.60649" lon="4.07614">
        <ele>2.54</ele>
        <time>2016-09-20T08:57:51Z</time>
      </trkpt>
      <trkpt lat="43.60651" lon="4.07613">
        <ele>1.58</ele>
        <time>2016-09-20T08:58:14Z</time>
      </trkpt>
      <trkpt lat="43.60648" lon="4.07614">
        <ele>2.06</ele>
        <time>2016-09-20T08:58:44Z</time>
      </trkpt>
      <trkpt lat="43.60657" lon="4.07622">
        <ele>0.62</ele>
        <time>2016-09-20T08:59:02Z</time>
      </trkpt>
      <trkpt lat="43.60663" lon="4.07628">
        <ele>-0.34</ele>
        <time>2016-09-20T08:59:17Z</time>
      </trkpt>
      <trkpt lat="43.60675" lon="4.0764">
        <ele>-1.79</ele>
        <time>2016-09-20T08:59:34Z</time>
      </trkpt>
      <trkpt lat="43.60688" lon="4.07655">
        <ele>-1.3</ele>
        <time>2016-09-20T08:59:52Z</time>
      </trkpt>
      <trkpt lat="43.60693" lon="4.07664">
        <ele>-0.82</ele>
        <time>2016-09-20T09:00:08Z</time>
      </trkpt>
      <trkpt lat="43.60705" lon="4.07675">
        <ele>-0.82</ele>
        <time>2016-09-20T09:00:25Z</time>
      </trkpt>
      <trkpt lat="43.6071" lon="4.0768">
        <ele>-0.34</ele>
        <time>2016-09-20T09:00:41Z</time>
      </trkpt>
      <trkpt lat="43.6071" lon="4.0768">
        <ele>0.14</ele>
        <time>2016-09-20T09:01:04Z</time>
      </trkpt>
      <trkpt lat="43.60713" lon="4.07684">
        <ele>1.1</ele>
        <time>2016-09-20T09:01:25Z</time>
      </trkpt>
      <trkpt lat="43.60722" lon="4.07694">
        <ele>1.1</ele>
        <time>2016-09-20T09:01:40Z</time>
      </trkpt>
      <trkpt lat="43.60734" lon="4.07708">
        <ele>1.1</ele>
        <time>2016-09-20T09:01:56Z</time>
      </trkpt>
      <trkpt lat="43.60748" lon="4.07723">
        <ele>2.06</ele>
        <time>2016-09-20T09:02:14Z</time>
      </trkpt>
      <trkpt lat="43.60763" lon="4.07739">
        <ele>2.54</ele>
        <time>2016-09-20T09:02:33Z</time>
      </trkpt>
      <trkpt lat="43.60776" lon="4.07752">
        <ele>3.5</ele>
        <time>2016-09-20T09:02:49Z</time>
      </trkpt>
      <trkpt lat="43.60789" lon="4.0777">
        <ele>2.54</ele>
        <time>2016-09-20T09:03:07Z</time>
      </trkpt>
      <trkpt lat="43.60804" lon="4.07788">
        <ele>2.06</ele>
        <time>2016-09-20T09:03:27Z</time>
      </trkpt>
      <trkpt lat="43.60812" lon="4.07799">
        <ele>1.1</ele>
        <time>2016-09-20T09:03:41Z</time>
      </trkpt>
      <trkpt lat="43.60807" lon="4.07809">
        <ele>1.1</ele>
        <time>2016-09-20T09:03:55Z</time>
      </trkpt>
      <trkpt lat="43.60793" lon="4.07809">
        <ele>1.58</ele>
        <time>2016-09-20T09:04:11Z</time>
      </trkpt>
      <trkpt lat="43.60782" lon="4.07811">
        <ele>1.58</ele>
        <time>2016-09-20T09:04:25Z</time>
      </trkpt>
      <trkpt lat="43.60782" lon="4.07812">
        <ele>0.62</ele>
        <time>2016-09-20T09:04:47Z</time>
      </trkpt>
      <trkpt lat="43.60781" lon="4.07812">
        <ele>0.62</ele>
        <time>2016-09-20T09:05:16Z</time>
      </trkpt>
      <trkpt lat="43.60782" lon="4.07815">
        <ele>1.58</ele>
        <time>2016-09-20T09:05:36Z</time>
      </trkpt>
      <trkpt lat="43.60782" lon="4.07814">
        <ele>1.58</ele>
        <time>2016-09-20T09:05:58Z</time>
      </trkpt>
      <trkpt lat="43.60782" lon="4.07813">
        <ele>1.1</ele>
        <time>2016-09-20T09:06:27Z</time>
      </trkpt>
      <trkpt lat="43.60782" lon="4.07814">
        <ele>1.58</ele>
        <time>2016-09-20T09:06:58Z</time>
      </trkpt>
      <trkpt lat="43.60784" lon="4.07813">
        <ele>1.1</ele>
        <time>2016-09-20T09:07:20Z</time>
      </trkpt>
      <trkpt lat="43.60788" lon="4.0781">
        <ele>1.58</ele>
        <time>2016-09-20T09:07:37Z</time>
      </trkpt>
      <trkpt lat="43.60794" lon="4.07811">
        <ele>1.58</ele>
        <time>2016-09-20T09:07:58Z</time>
      </trkpt>
      <trkpt lat="43.60812" lon="4.07809">
        <ele>2.54</ele>
        <time>2016-09-20T09:08:17Z</time>
      </trkpt>
      <trkpt lat="43.60823" lon="4.07812">
        <ele>2.06</ele>
        <time>2016-09-20T09:08:31Z</time>
      </trkpt>
      <trkpt lat="43.60844" lon="4.07809">
        <ele>0.62</ele>
        <time>2016-09-20T09:08:51Z</time>
      </trkpt>
      <trkpt lat="43.6086" lon="4.07808">
        <ele>1.1</ele>
        <time>2016-09-20T09:09:08Z</time>
      </trkpt>
      <trkpt lat="43.60874" lon="4.07809">
        <ele>0.14</ele>
        <time>2016-09-20T09:09:22Z</time>
      </trkpt>
      <trkpt lat="43.60882" lon="4.07806">
        <ele>-0.82</ele>
        <time>2016-09-20T09:09:34Z</time>
      </trkpt>
      <trkpt lat="43.60889" lon="4.07807">
        <ele>-0.82</ele>
        <time>2016-09-20T09:09:49Z</time>
      </trkpt>
      <trkpt lat="43.60904" lon="4.07805">
        <ele>0.14</ele>
        <time>2016-09-20T09:10:06Z</time>
      </trkpt>
      <trkpt lat="43.60908" lon="4.07805">
        <ele>0.14</ele>
        <time>2016-09-20T09:10:20Z</time>
      </trkpt>
      <trkpt lat="43.60915" lon="4.07805">
        <ele>-0.34</ele>
        <time>2016-09-20T09:10:39Z</time>
      </trkpt>
      <trkpt lat="43.60927" lon="4.07804">
        <ele>0.14</ele>
        <time>2016-09-20T09:10:54Z</time>
      </trkpt>
      <trkpt lat="43.60933" lon="4.07805">
        <ele>1.1</ele>
        <time>2016-09-20T09:11:10Z</time>
      </trkpt>
      <trkpt lat="43.60943" lon="4.07801">
        <ele>0.62</ele>
        <time>2016-09-20T09:11:26Z</time>
      </trkpt>
      <trkpt lat="43.60956" lon="4.07799">
        <ele>0.62</ele>
        <time>2016-09-20T09:11:41Z</time>
      </trkpt>
      <trkpt lat="43.60971" lon="4.07797">
        <ele>0.14</ele>
        <time>2016-09-20T09:11:58Z</time>
      </trkpt>
      <trkpt lat="43.60986" lon="4.07794">
        <ele>-1.3</ele>
        <time>2016-09-20T09:12:14Z</time>
      </trkpt>
      <trkpt lat="43.6099" lon="4.07795">
        <ele>-2.75</ele>
        <time>2016-09-20T09:12:31Z</time>
      </trkpt>
      <trkpt lat="43.60996" lon="4.07794">
        <ele>-2.27</ele>
        <time>2016-09-20T09:12:46Z</time>
      </trkpt>
      <trkpt lat="43.60999" lon="4.07798">
        <ele>-1.79</ele>
        <time>2016-09-20T09:13:01Z</time>
      </trkpt>
      <trkpt lat="43.61" lon="4.07802">
        <ele>-1.3</ele>
        <time>2016-09-20T09:13:20Z</time>
      </trkpt>
      <trkpt lat="43.61" lon="4.07808">
        <ele>-1.3</ele>
        <time>2016-09-20T09:13:32Z</time>
      </trkpt>
      <trkpt lat="43.60997" lon="4.07809">
        <ele>-1.79</ele>
        <time>2016-09-20T09:13:51Z</time>
      </trkpt>
      <trkpt lat="43.60991" lon="4.07815">
        <ele>-1.3</ele>
        <time>2016-09-20T09:14:11Z</time>
      </trkpt>
      <trkpt lat="43.60985" lon="4.0782">
        <ele>-0.34</ele>
        <time>2016-09-20T09:14:29Z</time>
      </trkpt>
      <trkpt lat="43.60972" lon="4.0782">
        <ele>-0.34</ele>
        <time>2016-09-20T09:14:46Z</time>
      </trkpt>
      <trkpt lat="43.60959" lon="4.07815">
        <ele>-0.34</ele>
        <time>2016-09-20T09:15:04Z</time>
      </trkpt>
      <trkpt lat="43.60948" lon="4.07817">
        <ele>0.14</ele>
        <time>2016-09-20T09:15:18Z</time>
      </trkpt>
      <trkpt lat="43.60933" lon="4.07818">
        <ele>1.58</ele>
        <time>2016-09-20T09:15:33Z</time>
      </trkpt>
      <trkpt lat="43.60927" lon="4.07817">
        <ele>0.62</ele>
        <time>2016-09-20T09:15:48Z</time>
      </trkpt>
      <trkpt lat="43.60922" lon="4.07817">
        <ele>-0.82</ele>
        <time>2016-09-20T09:16:05Z</time>
      </trkpt>
      <trkpt lat="43.60913" lon="4.07818">
        <ele>-0.82</ele>
        <time>2016-09-20T09:16:19Z</time>
      </trkpt>
      <trkpt lat="43.60901" lon="4.0782">
        <ele>-0.82</ele>
        <time>2016-09-20T09:16:34Z</time>
      </trkpt>
      <trkpt lat="43.60889" lon="4.07822">
        <ele>-0.82</ele>
        <time>2016-09-20T09:16:50Z</time>
      </trkpt>
      <trkpt lat="43.60879" lon="4.07822">
        <ele>-1.79</ele>
        <time>2016-09-20T09:17:02Z</time>
      </trkpt>
      <trkpt lat="43.60865" lon="4.07824">
        <ele>-1.79</ele>
        <time>2016-09-20T09:17:17Z</time>
      </trkpt>
      <trkpt lat="43.60849" lon="4.07825">
        <ele>-1.3</ele>
        <time>2016-09-20T09:17:32Z</time>
      </trkpt>
      <trkpt lat="43.60834" lon="4.07828">
        <ele>-1.79</ele>
        <time>2016-09-20T09:17:48Z</time>
      </trkpt>
      <trkpt lat="43.60828" lon="4.07839">
        <ele>-2.75</ele>
        <time>2016-09-20T09:18:03Z</time>
      </trkpt>
      <trkpt lat="43.60828" lon="4.07842">
        <ele>-2.27</ele>
        <time>2016-09-20T09:18:15Z</time>
      </trkpt>
      <trkpt lat="43.60834" lon="4.0785">
        <ele>-1.79</ele>
        <time>2016-09-20T09:18:29Z</time>
      </trkpt>
      <trkpt lat="43.60843" lon="4.07859">
        <ele>-1.3</ele>
        <time>2016-09-20T09:18:43Z</time>
      </trkpt>
      <trkpt lat="43.60853" lon="4.07869">
        <ele>-1.3</ele>
        <time>2016-09-20T09:18:58Z</time>
      </trkpt>
      <trkpt lat="43.60864" lon="4.0788">
        <ele>-1.79</ele>
        <time>2016-09-20T09:19:13Z</time>
      </trkpt>
      <trkpt lat="43.60875" lon="4.07888">
        <ele>-2.75</ele>
        <time>2016-09-20T09:19:28Z</time>
      </trkpt>
      <trkpt lat="43.60873" lon="4.07885">
        <ele>-1.79</ele>
        <time>2016-09-20T09:19:47Z</time>
      </trkpt>
      <trkpt lat="43.60873" lon="4.07889">
        <ele>-1.79</ele>
        <time>2016-09-20T09:20:06Z</time>
      </trkpt>
      <trkpt lat="43.60883" lon="4.07895">
        <ele>-0.82</ele>
        <time>2016-09-20T09:20:20Z</time>
      </trkpt>
      <trkpt lat="43.60896" lon="4.07908">
        <ele>-1.79</ele>
        <time>2016-09-20T09:20:36Z</time>
      </trkpt>
      <trkpt lat="43.6091" lon="4.07923">
        <ele>-2.27</ele>
        <time>2016-09-20T09:20:52Z</time>
      </trkpt>
      <trkpt lat="43.60917" lon="4.07928">
        <ele>-2.75</ele>
        <time>2016-09-20T09:20:59Z</time>
      </trkpt>
      <trkpt lat="43.6093" lon="4.07941">
        <ele>-2.27</ele>
        <time>2016-09-20T09:21:16Z</time>
      </trkpt>
      <trkpt lat="43.60933" lon="4.07944">
        <ele>-2.27</ele>
        <time>2016-09-20T09:21:34Z</time>
      </trkpt>
      <trkpt lat="43.60941" lon="4.07951">
        <ele>-2.27</ele>
        <time>2016-09-20T09:21:46Z</time>
      </trkpt>
      <trkpt lat="43.60957" lon="4.07965">
        <ele>-2.27</ele>
        <time>2016-09-20T09:22:04Z</time>
      </trkpt>
      <trkpt lat="43.60963" lon="4.0797">
        <ele>-2.27</ele>
        <time>2016-09-20T09:22:16Z</time>
      </trkpt>
      <trkpt lat="43.60973" lon="4.0798">
        <ele>-1.79</ele>
        <time>2016-09-20T09:22:31Z</time>
      </trkpt>
      <trkpt lat="43.60984" lon="4.07987">
        <ele>-1.3</ele>
        <time>2016-09-20T09:22:48Z</time>
      </trkpt>
      <trkpt lat="43.60995" lon="4.08">
        <ele>-2.75</ele>
        <time>2016-09-20T09:23:05Z</time>
      </trkpt>
      <trkpt lat="43.61008" lon="4.08015">
        <ele>-3.71</ele>
        <time>2016-09-20T09:23:24Z</time>
      </trkpt>
      <trkpt lat="43.6102" lon="4.08025">
        <ele>-1.79</ele>
        <time>2016-09-20T09:23:42Z</time>
      </trkpt>
      <trkpt lat="43.6103" lon="4.08034">
        <ele>-1.3</ele>
        <time>2016-09-20T09:23:58Z</time>
      </trkpt>
      <trkpt lat="43.61042" lon="4.08047">
        <ele>-1.79</ele>
        <time>2016-09-20T09:24:13Z</time>
      </trkpt>
      <trkpt lat="43.61056" lon="4.08059">
        <ele>-1.79</ele>
        <time>2016-09-20T09:24:30Z</time>
      </trkpt>
      <trkpt lat="43.6106" lon="4.08064">
        <ele>-1.79</ele>
        <time>2016-09-20T09:24:35Z</time>
      </trkpt>
      <trkpt lat="43.61066" lon="4.08069">
        <ele>-1.79</ele>
        <time>2016-09-20T09:24:42Z</time>
      </trkpt>
      <trkpt lat="43.61072" lon="4.08078">
        <ele>-1.79</ele>
        <time>2016-09-20T09:24:57Z</time>
      </trkpt>
      <trkpt lat="43.61073" lon="4.08085">
        <ele>-1.3</ele>
        <time>2016-09-20T09:25:14Z</time>
      </trkpt>
      <trkpt lat="43.61075" lon="4.08092">
        <ele>0.62</ele>
        <time>2016-09-20T09:25:35Z</time>
      </trkpt>
      <trkpt lat="43.61078" lon="4.08107">
        <ele>1.1</ele>
        <time>2016-09-20T09:25:50Z</time>
      </trkpt>
      <trkpt lat="43.61083" lon="4.08129">
        <ele>1.58</ele>
        <time>2016-09-20T09:26:08Z</time>
      </trkpt>
      <trkpt lat="43.61085" lon="4.08134">
        <ele>1.58</ele>
        <time>2016-09-20T09:26:12Z</time>
      </trkpt>
      <trkpt lat="43.61089" lon="4.08155">
        <ele>2.54</ele>
        <time>2016-09-20T09:26:27Z</time>
      </trkpt>
      <trkpt lat="43.61094" lon="4.08175">
        <ele>2.54</ele>
        <time>2016-09-20T09:26:42Z</time>
      </trkpt>
      <trkpt lat="43.61099" lon="4.08197">
        <ele>3.02</ele>
        <time>2016-09-20T09:26:58Z</time>
      </trkpt>
      <trkpt lat="43.61103" lon="4.08211">
        <ele>2.06</ele>
        <time>2016-09-20T09:27:14Z</time>
      </trkpt>
      <trkpt lat="43.611" lon="4.08219">
        <ele>1.58</ele>
        <time>2016-09-20T09:27:28Z</time>
      </trkpt>
      <trkpt lat="43.61091" lon="4.08219">
        <ele>-0.82</ele>
        <time>2016-09-20T09:27:43Z</time>
      </trkpt>
      <trkpt lat="43.61078" lon="4.08221">
        <ele>-0.82</ele>
        <time>2016-09-20T09:28:00Z</time>
      </trkpt>
      <trkpt lat="43.61062" lon="4.08225">
        <ele>-0.82</ele>
        <time>2016-09-20T09:28:17Z</time>
      </trkpt>
      <trkpt lat="43.6105" lon="4.08228">
        <ele>-0.82</ele>
        <time>2016-09-20T09:28:34Z</time>
      </trkpt>
      <trkpt lat="43.61036" lon="4.08229">
        <ele>-0.34</ele>
        <time>2016-09-20T09:28:53Z</time>
      </trkpt>
      <trkpt lat="43.61025" lon="4.08232">
        <ele>0.62</ele>
        <time>2016-09-20T09:29:09Z</time>
      </trkpt>
      <trkpt lat="43.61015" lon="4.08233">
        <ele>0.62</ele>
        <time>2016-09-20T09:29:26Z</time>
      </trkpt>
      <trkpt lat="43.61003" lon="4.08232">
        <ele>-0.34</ele>
        <time>2016-09-20T09:29:43Z</time>
      </trkpt>
      <trkpt lat="43.60992" lon="4.08232">
        <ele>1.1</ele>
        <time>2016-09-20T09:29:59Z</time>
      </trkpt>
      <trkpt lat="43.60989" lon="4.08232">
        <ele>0.62</ele>
        <time>2016-09-20T09:30:13Z</time>
      </trkpt>
      <trkpt lat="43.60989" lon="4.08232">
        <ele>0.62</ele>
        <time>2016-09-20T09:30:36Z</time>
      </trkpt>
      <trkpt lat="43.60989" lon="4.08231">
        <ele>0.14</ele>
        <time>2016-09-20T09:31:04Z</time>
      </trkpt>
      <trkpt lat="43.60987" lon="4.08231">
        <ele>-0.82</ele>
        <time>2016-09-20T09:31:36Z</time>
      </trkpt>
      <trkpt lat="43.60987" lon="4.08233">
        <ele>-0.34</ele>
        <time>2016-09-20T09:32:06Z</time>
      </trkpt>
      <trkpt lat="43.60987" lon="4.08235">
        <ele>0.14</ele>
        <time>2016-09-20T09:32:23Z</time>
      </trkpt>
      <trkpt lat="43.60987" lon="4.08233">
        <ele>1.1</ele>
        <time>2016-09-20T09:32:45Z</time>
      </trkpt>
      <trkpt lat="43.6099" lon="4.08234">
        <ele>1.58</ele>
        <time>2016-09-20T09:33:06Z</time>
      </trkpt>
      <trkpt lat="43.61001" lon="4.08235">
        <ele>1.58</ele>
        <time>2016-09-20T09:33:25Z</time>
      </trkpt>
      <trkpt lat="43.6101" lon="4.08237">
        <ele>2.06</ele>
        <time>2016-09-20T09:33:36Z</time>
      </trkpt>
      <trkpt lat="43.61026" lon="4.08237">
        <ele>3.02</ele>
        <time>2016-09-20T09:33:55Z</time>
      </trkpt>
      <trkpt lat="43.61043" lon="4.08231">
        <ele>2.54</ele>
        <time>2016-09-20T09:34:15Z</time>
      </trkpt>
      <trkpt lat="43.61048" lon="4.08231">
        <ele>1.58</ele>
        <time>2016-09-20T09:34:21Z</time>
      </trkpt>
      <trkpt lat="43.61064" lon="4.08226">
        <ele>1.58</ele>
        <time>2016-09-20T09:34:37Z</time>
      </trkpt>
      <trkpt lat="43.6108" lon="4.08223">
        <ele>2.06</ele>
        <time>2016-09-20T09:34:54Z</time>
      </trkpt>
      <trkpt lat="43.61094" lon="4.08222">
        <ele>1.58</ele>
        <time>2016-09-20T09:35:10Z</time>
      </trkpt>
      <trkpt lat="43.61111" lon="4.08224">
        <ele>2.06</ele>
        <time>2016-09-20T09:35:28Z</time>
      </trkpt>
      <trkpt lat="43.6113" lon="4.08222">
        <ele>1.58</ele>
        <time>2016-09-20T09:35:47Z</time>
      </trkpt>
      <trkpt lat="43.61147" lon="4.08222">
        <ele>2.06</ele>
        <time>2016-09-20T09:36:03Z</time>
      </trkpt>
      <trkpt lat="43.61162" lon="4.08221">
        <ele>3.02</ele>
        <time>2016-09-20T09:36:19Z</time>
      </trkpt>
      <trkpt lat="43.61179" lon="4.08218">
        <ele>3.5</ele>
        <time>2016-09-20T09:36:35Z</time>
      </trkpt>
      <trkpt lat="43.61192" lon="4.08216">
        <ele>3.98</ele>
        <time>2016-09-20T09:36:49Z</time>
      </trkpt>
      <trkpt lat="43.61205" lon="4.08215">
        <ele>3.5</ele>
        <time>2016-09-20T09:37:03Z</time>
      </trkpt>
      <trkpt lat="43.61223" lon="4.08213">
        <ele>3.98</ele>
        <time>2016-09-20T09:37:21Z</time>
      </trkpt>
      <trkpt lat="43.61238" lon="4.08213">
        <ele>4.46</ele>
        <time>2016-09-20T09:37:37Z</time>
      </trkpt>
      <trkpt lat="43.61255" lon="4.08215">
        <ele>4.94</ele>
        <time>2016-09-20T09:37:54Z</time>
      </trkpt>
      <trkpt lat="43.61269" lon="4.08216">
        <ele>4.94</ele>
        <time>2016-09-20T09:38:09Z</time>
      </trkpt>
      <trkpt lat="43.6128" lon="4.08212">
        <ele>4.46</ele>
        <time>2016-09-20T09:38:24Z</time>
      </trkpt>
      <trkpt lat="43.61291" lon="4.0821">
        <ele>3.98</ele>
        <time>2016-09-20T09:38:42Z</time>
      </trkpt>
      <trkpt lat="43.6131" lon="4.08207">
        <ele>3.02</ele>
        <time>2016-09-20T09:39:01Z</time>
      </trkpt>
      <trkpt lat="43.61326" lon="4.08204">
        <ele>2.54</ele>
        <time>2016-09-20T09:39:17Z</time>
      </trkpt>
      <trkpt lat="43.61341" lon="4.08204">
        <ele>2.06</ele>
        <time>2016-09-20T09:39:33Z</time>
      </trkpt>
      <trkpt lat="43.61355" lon="4.08203">
        <ele>1.58</ele>
        <time>2016-09-20T09:39:48Z</time>
      </trkpt>
      <trkpt lat="43.6137" lon="4.08203">
        <ele>1.58</ele>
        <time>2016-09-20T09:40:04Z</time>
      </trkpt>
      <trkpt lat="43.61387" lon="4.08203">
        <ele>0.62</ele>
        <time>2016-09-20T09:40:23Z</time>
      </trkpt>
      <trkpt lat="43.61405" lon="4.08202">
        <ele>0.62</ele>
        <time>2016-09-20T09:40:43Z</time>
      </trkpt>
      <trkpt lat="43.61422" lon="4.08203">
        <ele>1.1</ele>
        <time>2016-09-20T09:41:01Z</time>
      </trkpt>
      <trkpt lat="43.61438" lon="4.08202">
        <ele>1.1</ele>
        <time>2016-09-20T09:41:18Z</time>
      </trkpt>
      <trkpt lat="43.61453" lon="4.08201">
        <ele>0.62</ele>
        <time>2016-09-20T09:41:35Z</time>
      </trkpt>
      <trkpt lat="43.61471" lon="4.08203">
        <ele>0.62</ele>
        <time>2016-09-20T09:41:56Z</time>
      </trkpt>
      <trkpt lat="43.61487" lon="4.08202">
        <ele>0.14</ele>
        <time>2016-09-20T09:42:15Z</time>
      </trkpt>
      <trkpt lat="43.61503" lon="4.08201">
        <ele>0.62</ele>
        <time>2016-09-20T09:42:33Z</time>
      </trkpt>
      <trkpt lat="43.61521" lon="4.08201">
        <ele>0.62</ele>
        <time>2016-09-20T09:42:52Z</time>
      </trkpt>
      <trkpt lat="43.61537" lon="4.082">
        <ele>1.1</ele>
        <time>2016-09-20T09:43:09Z</time>
      </trkpt>
      <trkpt lat="43.61555" lon="4.08198">
        <ele>0.62</ele>
        <time>2016-09-20T09:43:28Z</time>
      </trkpt>
      <trkpt lat="43.6157" lon="4.08198">
        <ele>1.1</ele>
        <time>2016-09-20T09:43:44Z</time>
      </trkpt>
      <trkpt lat="43.6159" lon="4.08197">
        <ele>2.06</ele>
        <time>2016-09-20T09:44:04Z</time>
      </trkpt>
      <trkpt lat="43.61606" lon="4.08197">
        <ele>2.06</ele>
        <time>2016-09-20T09:44:23Z</time>
      </trkpt>
      <trkpt lat="43.61619" lon="4.08198">
        <ele>-0.34</ele>
        <time>2016-09-20T09:44:42Z</time>
      </trkpt>
      <trkpt lat="43.61632" lon="4.08195">
        <ele>0.62</ele>
        <time>2016-09-20T09:45:00Z</time>
      </trkpt>
      <trkpt lat="43.61634" lon="4.0819">
        <ele>1.1</ele>
        <time>2016-09-20T09:45:16Z</time>
      </trkpt>
      <trkpt lat="43.6164" lon="4.08187">
        <ele>2.54</ele>
        <time>2016-09-20T09:45:36Z</time>
      </trkpt>
      <trkpt lat="43.6165" lon="4.08193">
        <ele>2.54</ele>
        <time>2016-09-20T09:45:55Z</time>
      </trkpt>
      <trkpt lat="43.61649" lon="4.08209">
        <ele>1.58</ele>
        <time>2016-09-20T09:46:12Z</time>
      </trkpt>
      <trkpt lat="43.61649" lon="4.08218">
        <ele>0.14</ele>
        <time>2016-09-20T09:46:28Z</time>
      </trkpt>
      <trkpt lat="43.61648" lon="4.08227">
        <ele>1.1</ele>
        <time>2016-09-20T09:46:46Z</time>
      </trkpt>
      <trkpt lat="43.61649" lon="4.08226">
        <ele>2.54</ele>
        <time>2016-09-20T09:47:10Z</time>
      </trkpt>
      <trkpt lat="43.6164" lon="4.08225">
        <ele>1.58</ele>
        <time>2016-09-20T09:47:30Z</time>
      </trkpt>
      <trkpt lat="43.61627" lon="4.0822">
        <ele>2.06</ele>
        <time>2016-09-20T09:47:48Z</time>
      </trkpt>
      <trkpt lat="43.61611" lon="4.08213">
        <ele>1.58</ele>
        <time>2016-09-20T09:48:06Z</time>
      </trkpt>
      <trkpt lat="43.61597" lon="4.0822">
        <ele>1.1</ele>
        <time>2016-09-20T09:48:21Z</time>
      </trkpt>
      <trkpt lat="43.6158" lon="4.08221">
        <ele>0.62</ele>
        <time>2016-09-20T09:48:37Z</time>
      </trkpt>
      <trkpt lat="43.61577" lon="4.0822">
        <ele>0.62</ele>
        <time>2016-09-20T09:48:40Z</time>
      </trkpt>
      <trkpt lat="43.61562" lon="4.0822">
        <ele>1.58</ele>
        <time>2016-09-20T09:48:55Z</time>
      </trkpt>
      <trkpt lat="43.61546" lon="4.0822">
        <ele>1.58</ele>
        <time>2016-09-20T09:49:10Z</time>
      </trkpt>
      <trkpt lat="43.61531" lon="4.08222">
        <ele>2.54</ele>
        <time>2016-09-20T09:49:26Z</time>
      </trkpt>
      <trkpt lat="43.61515" lon="4.08223">
        <ele>3.02</ele>
        <time>2016-09-20T09:49:42Z</time>
      </trkpt>
      <trkpt lat="43.61497" lon="4.08224">
        <ele>4.46</ele>
        <time>2016-09-20T09:50:00Z</time>
      </trkpt>
      <trkpt lat="43.61481" lon="4.08225">
        <ele>3.98</ele>
        <time>2016-09-20T09:50:18Z</time>
      </trkpt>
      <trkpt lat="43.61465" lon="4.08228">
        <ele>2.06</ele>
        <time>2016-09-20T09:50:35Z</time>
      </trkpt>
      <trkpt lat="43.61448" lon="4.08228">
        <ele>1.1</ele>
        <time>2016-09-20T09:50:49Z</time>
      </trkpt>
      <trkpt lat="43.61431" lon="4.08228">
        <ele>1.1</ele>
        <time>2016-09-20T09:51:06Z</time>
      </trkpt>
      <trkpt lat="43.61412" lon="4.0823">
        <ele>1.58</ele>
        <time>2016-09-20T09:51:23Z</time>
      </trkpt>
      <trkpt lat="43.61394" lon="4.08231">
        <ele>1.1</ele>
        <time>2016-09-20T09:51:40Z</time>
      </trkpt>
      <trkpt lat="43.6138" lon="4.08229">
        <ele>1.1</ele>
        <time>2016-09-20T09:51:53Z</time>
      </trkpt>
      <trkpt lat="43.61366" lon="4.08231">
        <ele>1.58</ele>
        <time>2016-09-20T09:52:07Z</time>
      </trkpt>
      <trkpt lat="43.61346" lon="4.08232">
        <ele>1.58</ele>
        <time>2016-09-20T09:52:25Z</time>
      </trkpt>
      <trkpt lat="43.61329" lon="4.08229">
        <ele>2.54</ele>
        <time>2016-09-20T09:52:42Z</time>
      </trkpt>
      <trkpt lat="43.61314" lon="4.08238">
        <ele>3.02</ele>
        <time>2016-09-20T09:52:59Z</time>
      </trkpt>
      <trkpt lat="43.61313" lon="4.08247">
        <ele>3.02</ele>
        <time>2016-09-20T09:53:16Z</time>
      </trkpt>
      <trkpt lat="43.61312" lon="4.0825">
        <ele>3.02</ele>
        <time>2016-09-20T09:53:34Z</time>
      </trkpt>
      <trkpt lat="43.61314" lon="4.08255">
        <ele>3.5</ele>
        <time>2016-09-20T09:53:48Z</time>
      </trkpt>
      <trkpt lat="43.61318" lon="4.08275">
        <ele>3.98</ele>
        <time>2016-09-20T09:54:06Z</time>
      </trkpt>
      <trkpt lat="43.61325" lon="4.08299">
        <ele>3.02</ele>
        <time>2016-09-20T09:54:26Z</time>
      </trkpt>
      <trkpt lat="43.61329" lon="4.08323">
        <ele>2.06</ele>
        <time>2016-09-20T09:54:44Z</time>
      </trkpt>
      <trkpt lat="43.61333" lon="4.08341">
        <ele>2.54</ele>
        <time>2016-09-20T09:55:01Z</time>
      </trkpt>
      <trkpt lat="43.61338" lon="4.08366">
        <ele>2.06</ele>
        <time>2016-09-20T09:55:19Z</time>
      </trkpt>
      <trkpt lat="43.61346" lon="4.08394">
        <ele>1.1</ele>
        <time>2016-09-20T09:55:39Z</time>
      </trkpt>
      <trkpt lat="43.61353" lon="4.08423">
        <ele>-0.34</ele>
        <time>2016-09-20T09:56:00Z</time>
      </trkpt>
      <trkpt lat="43.6136" lon="4.08454">
        <ele>-0.34</ele>
        <time>2016-09-20T09:56:22Z</time>
      </trkpt>
      <trkpt lat="43.61366" lon="4.08482">
        <ele>-0.82</ele>
        <time>2016-09-20T09:56:41Z</time>
      </trkpt>
      <trkpt lat="43.61372" lon="4.08507">
        <ele>-1.79</ele>
        <time>2016-09-20T09:56:59Z</time>
      </trkpt>
      <trkpt lat="43.61377" lon="4.08531">
        <ele>-2.27</ele>
        <time>2016-09-20T09:57:14Z</time>
      </trkpt>
      <trkpt lat="43.61383" lon="4.08557">
        <ele>-3.23</ele>
        <time>2016-09-20T09:57:32Z</time>
      </trkpt>
      <trkpt lat="43.61388" lon="4.0858">
        <ele>-2.75</ele>
        <time>2016-09-20T09:57:47Z</time>
      </trkpt>
      <trkpt lat="43.61392" lon="4.08604">
        <ele>-2.27</ele>
        <time>2016-09-20T09:58:04Z</time>
      </trkpt>
      <trkpt lat="43.61392" lon="4.0863">
        <ele>-3.23</ele>
        <time>2016-09-20T09:58:22Z</time>
      </trkpt>
      <trkpt lat="43.61386" lon="4.08653">
        <ele>-4.19</ele>
        <time>2016-09-20T09:58:39Z</time>
      </trkpt>
      <trkpt lat="43.6138" lon="4.08686">
        <ele>-4.19</ele>
        <time>2016-09-20T09:59:02Z</time>
      </trkpt>
      <trkpt lat="43.61378" lon="4.08696">
        <ele>-4.19</ele>
        <time>2016-09-20T09:59:09Z</time>
      </trkpt>
      <trkpt lat="43.61372" lon="4.08724">
        <ele>-3.23</ele>
        <time>2016-09-20T09:59:28Z</time>
      </trkpt>
      <trkpt lat="43.61365" lon="4.08754">
        <ele>-4.19</ele>
        <time>2016-09-20T09:59:48Z</time>
      </trkpt>
      <trkpt lat="43.61359" lon="4.08783">
        <ele>-4.67</ele>
        <time>2016-09-20T10:00:08Z</time>
      </trkpt>
      <trkpt lat="43.61352" lon="4.08816">
        <ele>-5.63</ele>
        <time>2016-09-20T10:00:31Z</time>
      </trkpt>
      <trkpt lat="43.61348" lon="4.08843">
        <ele>-3.23</ele>
        <time>2016-09-20T10:00:49Z</time>
      </trkpt>
      <trkpt lat="43.61342" lon="4.08869">
        <ele>-1.79</ele>
        <time>2016-09-20T10:01:08Z</time>
      </trkpt>
      <trkpt lat="43.61336" lon="4.08902">
        <ele>-1.79</ele>
        <time>2016-09-20T10:01:30Z</time>
      </trkpt>
      <trkpt lat="43.6133" lon="4.08928">
        <ele>-1.3</ele>
        <time>2016-09-20T10:01:48Z</time>
      </trkpt>
      <trkpt lat="43.61325" lon="4.08956">
        <ele>-1.79</ele>
        <time>2016-09-20T10:02:07Z</time>
      </trkpt>
      <trkpt lat="43.61321" lon="4.08981">
        <ele>-1.3</ele>
        <time>2016-09-20T10:02:25Z</time>
      </trkpt>
      <trkpt lat="43.61316" lon="4.09004">
        <ele>-1.3</ele>
        <time>2016-09-20T10:02:41Z</time>
      </trkpt>
      <trkpt lat="43.61309" lon="4.09033">
        <ele>-2.27</ele>
        <time>2016-09-20T10:03:00Z</time>
      </trkpt>
      <trkpt lat="43.61303" lon="4.09059">
        <ele>-3.23</ele>
        <time>2016-09-20T10:03:20Z</time>
      </trkpt>
      <trkpt lat="43.61299" lon="4.09082">
        <ele>-3.23</ele>
        <time>2016-09-20T10:03:38Z</time>
      </trkpt>
      <trkpt lat="43.61295" lon="4.09107">
        <ele>-3.71</ele>
        <time>2016-09-20T10:03:56Z</time>
      </trkpt>
      <trkpt lat="43.61294" lon="4.09134">
        <ele>-2.75</ele>
        <time>2016-09-20T10:04:13Z</time>
      </trkpt>
      <trkpt lat="43.61296" lon="4.09159">
        <ele>-1.3</ele>
        <time>2016-09-20T10:04:31Z</time>
      </trkpt>
      <trkpt lat="43.61299" lon="4.09168">
        <ele>1.1</ele>
        <time>2016-09-20T10:04:49Z</time>
      </trkpt>
      <trkpt lat="43.61299" lon="4.09171">
        <ele>-0.34</ele>
        <time>2016-09-20T10:05:18Z</time>
      </trkpt>
      <trkpt lat="43.613" lon="4.09174">
        <ele>-1.79</ele>
        <time>2016-09-20T10:05:44Z</time>
      </trkpt>
      <trkpt lat="43.61304" lon="4.09177">
        <ele>-2.27</ele>
        <time>2016-09-20T10:06:12Z</time>
      </trkpt>
      <trkpt lat="43.613" lon="4.09183">
        <ele>-1.79</ele>
        <time>2016-09-20T10:06:30Z</time>
      </trkpt>
      <trkpt lat="43.61303" lon="4.09213">
        <ele>-0.82</ele>
        <time>2016-09-20T10:06:51Z</time>
      </trkpt>
      <trkpt lat="43.61304" lon="4.09235">
        <ele>1.1</ele>
        <time>2016-09-20T10:07:08Z</time>
      </trkpt>
      <trkpt lat="43.61308" lon="4.09252">
        <ele>1.1</ele>
        <time>2016-09-20T10:07:26Z</time>
      </trkpt>
      <trkpt lat="43.61324" lon="4.09258">
        <ele>2.06</ele>
        <time>2016-09-20T10:07:46Z</time>
      </trkpt>
      <trkpt lat="43.61331" lon="4.09259">
        <ele>2.54</ele>
        <time>2016-09-20T10:07:53Z</time>
      </trkpt>
      <trkpt lat="43.61345" lon="4.09261">
        <ele>3.02</ele>
        <time>2016-09-20T10:08:08Z</time>
      </trkpt>
      <trkpt lat="43.61359" lon="4.09263">
        <ele>2.54</ele>
        <time>2016-09-20T10:08:25Z</time>
      </trkpt>
      <trkpt lat="43.61377" lon="4.09267">
        <ele>2.06</ele>
        <time>2016-09-20T10:08:44Z</time>
      </trkpt>
      <trkpt lat="43.61394" lon="4.09271">
        <ele>2.06</ele>
        <time>2016-09-20T10:09:02Z</time>
      </trkpt>
      <trkpt lat="43.61414" lon="4.09276">
        <ele>2.06</ele>
        <time>2016-09-20T10:09:22Z</time>
      </trkpt>
      <trkpt lat="43.61429" lon="4.09279">
        <ele>2.54</ele>
        <time>2016-09-20T10:09:38Z</time>
      </trkpt>
      <trkpt lat="43.61446" lon="4.09284">
        <ele>2.54</ele>
        <time>2016-09-20T10:09:55Z</time>
      </trkpt>
      <trkpt lat="43.61461" lon="4.09289">
        <ele>2.54</ele>
        <time>2016-09-20T10:10:10Z</time>
      </trkpt>
      <trkpt lat="43.61466" lon="4.09289">
        <ele>2.54</ele>
        <time>2016-09-20T10:10:15Z</time>
      </trkpt>
      <trkpt lat="43.6148" lon="4.09293">
        <ele>2.06</ele>
        <time>2016-09-20T10:10:31Z</time>
      </trkpt>
      <trkpt lat="43.61496" lon="4.09298">
        <ele>1.1</ele>
        <time>2016-09-20T10:10:48Z</time>
      </trkpt>
      <trkpt lat="43.61513" lon="4.09301">
        <ele>0.14</ele>
        <time>2016-09-20T10:11:05Z</time>
      </trkpt>
      <trkpt lat="43.61528" lon="4.09304">
        <ele>-0.34</ele>
        <time>2016-09-20T10:11:22Z</time>
      </trkpt>
      <trkpt lat="43.6154" lon="4.09306">
        <ele>0.62</ele>
        <time>2016-09-20T10:11:39Z</time>
      </trkpt>
      <trkpt lat="43.61545" lon="4.09308">
        <ele>1.1</ele>
        <time>2016-09-20T10:11:56Z</time>
      </trkpt>
      <trkpt lat="43.61544" lon="4.09306">
        <ele>2.54</ele>
        <time>2016-09-20T10:12:16Z</time>
      </trkpt>
      <trkpt lat="43.61545" lon="4.09304">
        <ele>3.98</ele>
        <time>2016-09-20T10:12:42Z</time>
      </trkpt>
      <trkpt lat="43.61545" lon="4.09308">
        <ele>5.42</ele>
        <time>2016-09-20T10:13:00Z</time>
      </trkpt>
      <trkpt lat="43.61543" lon="4.09313">
        <ele>4.46</ele>
        <time>2016-09-20T10:13:18Z</time>
      </trkpt>
      <trkpt lat="43.61543" lon="4.09322">
        <ele>3.98</ele>
        <time>2016-09-20T10:13:39Z</time>
      </trkpt>
      <trkpt lat="43.61541" lon="4.09333">
        <ele>3.02</ele>
        <time>2016-09-20T10:13:56Z</time>
      </trkpt>
      <trkpt lat="43.61538" lon="4.09338">
        <ele>1.58</ele>
        <time>2016-09-20T10:14:20Z</time>
      </trkpt>
      <trkpt lat="43.61538" lon="4.09338">
        <ele>0.14</ele>
        <time>2016-09-20T10:14:46Z</time>
      </trkpt>
      <trkpt lat="43.61538" lon="4.09341">
        <ele>-0.34</ele>
        <time>2016-09-20T10:15:04Z</time>
      </trkpt>
      <trkpt lat="43.61535" lon="4.09341">
        <ele>-0.82</ele>
        <time>2016-09-20T10:15:23Z</time>
      </trkpt>
      <trkpt lat="43.61527" lon="4.09339">
        <ele>-1.79</ele>
        <time>2016-09-20T10:15:42Z</time>
      </trkpt>
      <trkpt lat="43.61519" lon="4.09336">
        <ele>-1.3</ele>
        <time>2016-09-20T10:15:59Z</time>
      </trkpt>
      <trkpt lat="43.6151" lon="4.09329">
        <ele>-0.34</ele>
        <time>2016-09-20T10:16:09Z</time>
      </trkpt>
      <trkpt lat="43.61496" lon="4.09323">
        <ele>0.62</ele>
        <time>2016-09-20T10:16:23Z</time>
      </trkpt>
      <trkpt lat="43.61481" lon="4.09318">
        <ele>1.58</ele>
        <time>2016-09-20T10:16:38Z</time>
      </trkpt>
      <trkpt lat="43.61468" lon="4.09315">
        <ele>2.54</ele>
        <time>2016-09-20T10:16:52Z</time>
      </trkpt>
      <trkpt lat="43.61456" lon="4.09312">
        <ele>3.5</ele>
        <time>2016-09-20T10:17:05Z</time>
      </trkpt>
      <trkpt lat="43.61442" lon="4.0931">
        <ele>4.94</ele>
        <time>2016-09-20T10:17:22Z</time>
      </trkpt>
      <trkpt lat="43.61423" lon="4.09306">
        <ele>7.83</ele>
        <time>2016-09-20T10:17:43Z</time>
      </trkpt>
      <trkpt lat="43.61413" lon="4.0931">
        <ele>9.27</ele>
        <time>2016-09-20T10:18:01Z</time>
      </trkpt>
      <trkpt lat="43.61409" lon="4.09308">
        <ele>8.79</ele>
        <time>2016-09-20T10:18:22Z</time>
      </trkpt>
      <trkpt lat="43.61407" lon="4.09314">
        <ele>5.42</ele>
        <time>2016-09-20T10:18:40Z</time>
      </trkpt>
      <trkpt lat="43.61408" lon="4.09315">
        <ele>4.46</ele>
        <time>2016-09-20T10:18:56Z</time>
      </trkpt>
      <trkpt lat="43.61401" lon="4.09323">
        <ele>2.06</ele>
        <time>2016-09-20T10:19:14Z</time>
      </trkpt>
      <trkpt lat="43.61386" lon="4.09323">
        <ele>0.14</ele>
        <time>2016-09-20T10:19:32Z</time>
      </trkpt>
      <trkpt lat="43.61371" lon="4.09317">
        <ele>-4.19</ele>
        <time>2016-09-20T10:19:51Z</time>
      </trkpt>
      <trkpt lat="43.61362" lon="4.09307">
        <ele>-3.71</ele>
        <time>2016-09-20T10:20:07Z</time>
      </trkpt>
      <trkpt lat="43.61353" lon="4.09309">
        <ele>-3.23</ele>
        <time>2016-09-20T10:20:24Z</time>
      </trkpt>
      <trkpt lat="43.61348" lon="4.09301">
        <ele>-2.75</ele>
        <time>2016-09-20T10:20:42Z</time>
      </trkpt>
      <trkpt lat="43.61347" lon="4.09305">
        <ele>-2.27</ele>
        <time>2016-09-20T10:20:57Z</time>
      </trkpt>
      <trkpt lat="43.6135" lon="4.09306">
        <ele>1.58</ele>
        <time>2016-09-20T10:21:25Z</time>
      </trkpt>
      <trkpt lat="43.61348" lon="4.09311">
        <ele>3.98</ele>
        <time>2016-09-20T10:21:50Z</time>
      </trkpt>
      <trkpt lat="43.61347" lon="4.09304">
        <ele>3.02</ele>
        <time>2016-09-20T10:22:20Z</time>
      </trkpt>
      <trkpt lat="43.61346" lon="4.09312">
        <ele>11.19</ele>
        <time>2016-09-20T10:22:46Z</time>
      </trkpt>
      <trkpt lat="43.61347" lon="4.0931">
        <ele>16.48</ele>
        <time>2016-09-20T10:23:17Z</time>
      </trkpt>
      <trkpt lat="43.61348" lon="4.09309">
        <ele>16.96</ele>
        <time>2016-09-20T10:23:46Z</time>
      </trkpt>
      <trkpt lat="43.61345" lon="4.09321">
        <ele>23.21</ele>
        <time>2016-09-20T10:24:09Z</time>
      </trkpt>
      <trkpt lat="43.61347" lon="4.0932">
        <ele>27.53</ele>
        <time>2016-09-20T10:24:39Z</time>
      </trkpt>
      <trkpt lat="43.61348" lon="4.09315">
        <ele>26.09</ele>
        <time>2016-09-20T10:25:12Z</time>
      </trkpt>
      <trkpt lat="43.61348" lon="4.09311">
        <ele>9.75</ele>
        <time>2016-09-20T10:25:49Z</time>
      </trkpt>
      <trkpt lat="43.61349" lon="4.09311">
        <ele>11.67</ele>
        <time>2016-09-20T10:26:18Z</time>
      </trkpt>
      <trkpt lat="43.6135" lon="4.09307">
        <ele>11.67</ele>
        <time>2016-09-20T10:26:49Z</time>
      </trkpt>
      <trkpt lat="43.61346" lon="4.09316">
        <ele>16</ele>
        <time>2016-09-20T10:27:17Z</time>
      </trkpt>
      <trkpt lat="43.61353" lon="4.09303">
        <ele>17.44</ele>
        <time>2016-09-20T10:27:51Z</time>
      </trkpt>
      <trkpt lat="43.6135" lon="4.09308">
        <ele>13.6</ele>
        <time>2016-09-20T10:28:23Z</time>
      </trkpt>
      <trkpt lat="43.6135" lon="4.09311">
        <ele>9.75</ele>
        <time>2016-09-20T10:28:53Z</time>
      </trkpt>
      <trkpt lat="43.6135" lon="4.09313">
        <ele>9.75</ele>
        <time>2016-09-20T10:29:28Z</time>
      </trkpt>
      <trkpt lat="43.61349" lon="4.09307">
        <ele>4.94</ele>
        <time>2016-09-20T10:29:59Z</time>
      </trkpt>
      <trkpt lat="43.61348" lon="4.09308">
        <ele>5.42</ele>
        <time>2016-09-20T10:30:34Z</time>
      </trkpt>
      <trkpt lat="43.61349" lon="4.09313">
        <ele>6.87</ele>
        <time>2016-09-20T10:31:03Z</time>
      </trkpt>
      <trkpt lat="43.6135" lon="4.0931">
        <ele>9.75</ele>
        <time>2016-09-20T10:31:30Z</time>
      </trkpt>
      <trkpt lat="43.61349" lon="4.09309">
        <ele>6.39</ele>
        <time>2016-09-20T10:32:03Z</time>
      </trkpt>
      <trkpt lat="43.61344" lon="4.09313">
        <ele>11.67</ele>
        <time>2016-09-20T10:32:30Z</time>
      </trkpt>
      <trkpt lat="43.6135" lon="4.09314">
        <ele>22.25</ele>
        <time>2016-09-20T10:32:54Z</time>
      </trkpt>
      <trkpt lat="43.61351" lon="4.09311">
        <ele>22.25</ele>
        <time>2016-09-20T10:32:56Z</time>
      </trkpt>
      <trkpt lat="43.61363" lon="4.09285">
        <ele>9.75</ele>
        <time>2016-09-20T10:33:17Z</time>
      </trkpt>
      <trkpt lat="43.61352" lon="4.09302">
        <ele>4.46</ele>
        <time>2016-09-20T10:33:36Z</time>
      </trkpt>
      <trkpt lat="43.61342" lon="4.09309">
        <ele>-5.63</ele>
        <time>2016-09-20T10:34:05Z</time>
      </trkpt>
      <trkpt lat="43.61346" lon="4.09313">
        <ele>-4.67</ele>
        <time>2016-09-20T10:34:29Z</time>
      </trkpt>
      <trkpt lat="43.61346" lon="4.0931">
        <ele>-5.63</ele>
        <time>2016-09-20T10:34:52Z</time>
      </trkpt>
      <trkpt lat="43.61349" lon="4.09308">
        <ele>-2.75</ele>
        <time>2016-09-20T10:35:20Z</time>
      </trkpt>
      <trkpt lat="43.61354" lon="4.09306">
        <ele>3.5</ele>
        <time>2016-09-20T10:35:48Z</time>
      </trkpt>
      <trkpt lat="43.61343" lon="4.09306">
        <ele>-3.71</ele>
        <time>2016-09-20T10:36:02Z</time>
      </trkpt>
      <trkpt lat="43.6134" lon="4.09307">
        <ele>-7.55</ele>
        <time>2016-09-20T10:36:24Z</time>
      </trkpt>
      <trkpt lat="43.61353" lon="4.09294">
        <ele>-6.11</ele>
        <time>2016-09-20T10:36:52Z</time>
      </trkpt>
      <trkpt lat="43.61342" lon="4.09306">
        <ele>-3.23</ele>
        <time>2016-09-20T10:37:13Z</time>
      </trkpt>
      <trkpt lat="43.61341" lon="4.09312">
        <ele>1.1</ele>
        <time>2016-09-20T10:37:38Z</time>
      </trkpt>
      <trkpt lat="43.61341" lon="4.09311">
        <ele>3.02</ele>
        <time>2016-09-20T10:38:09Z</time>
      </trkpt>
      <trkpt lat="43.61348" lon="4.09309">
        <ele>4.94</ele>
        <time>2016-09-20T10:38:34Z</time>
      </trkpt>
      <trkpt lat="43.61351" lon="4.09304">
        <ele>4.46</ele>
        <time>2016-09-20T10:39:05Z</time>
      </trkpt>
      <trkpt lat="43.61352" lon="4.09307">
        <ele>6.87</ele>
        <time>2016-09-20T10:39:31Z</time>
      </trkpt>
      <trkpt lat="43.6135" lon="4.09305">
        <ele>5.91</ele>
        <time>2016-09-20T10:39:53Z</time>
      </trkpt>
      <trkpt lat="43.61349" lon="4.09301">
        <ele>1.1</ele>
        <time>2016-09-20T10:40:22Z</time>
      </trkpt>
      <trkpt lat="43.61349" lon="4.09305">
        <ele>-0.82</ele>
        <time>2016-09-20T10:40:49Z</time>
      </trkpt>
      <trkpt lat="43.61347" lon="4.09304">
        <ele>2.06</ele>
        <time>2016-09-20T10:41:19Z</time>
      </trkpt>
      <trkpt lat="43.61349" lon="4.09307">
        <ele>2.06</ele>
        <time>2016-09-20T10:41:49Z</time>
      </trkpt>
      <trkpt lat="43.61351" lon="4.09306">
        <ele>5.91</ele>
        <time>2016-09-20T10:42:24Z</time>
      </trkpt>
      <trkpt lat="43.61348" lon="4.09307">
        <ele>3.98</ele>
        <time>2016-09-20T10:43:00Z</time>
      </trkpt>
      <trkpt lat="43.61347" lon="4.09304">
        <ele>0.62</ele>
        <time>2016-09-20T10:43:36Z</time>
      </trkpt>
      <trkpt lat="43.61347" lon="4.09306">
        <ele>-0.34</ele>
        <time>2016-09-20T10:44:19Z</time>
      </trkpt>
      <trkpt lat="43.61347" lon="4.09306">
        <ele>-3.23</ele>
        <time>2016-09-20T10:44:47Z</time>
      </trkpt>
      <trkpt lat="43.61347" lon="4.09306">
        <ele>-6.11</ele>
        <time>2016-09-20T10:45:15Z</time>
      </trkpt>
      <trkpt lat="43.61345" lon="4.09309">
        <ele>-7.07</ele>
        <time>2016-09-20T10:45:42Z</time>
      </trkpt>
      <trkpt lat="43.6134" lon="4.09306">
        <ele>-6.11</ele>
        <time>2016-09-20T10:46:11Z</time>
      </trkpt>
      <trkpt lat="43.61346" lon="4.0931">
        <ele>-3.71</ele>
        <time>2016-09-20T10:46:37Z</time>
      </trkpt>
      <trkpt lat="43.61345" lon="4.09304">
        <ele>-4.19</ele>
        <time>2016-09-20T10:47:18Z</time>
      </trkpt>
      <trkpt lat="43.61343" lon="4.09305">
        <ele>-3.71</ele>
        <time>2016-09-20T10:47:47Z</time>
      </trkpt>
      <trkpt lat="43.61348" lon="4.09304">
        <ele>-5.15</ele>
        <time>2016-09-20T10:48:16Z</time>
      </trkpt>
      <trkpt lat="43.61347" lon="4.09311">
        <ele>-9</ele>
        <time>2016-09-20T10:48:39Z</time>
      </trkpt>
      <trkpt lat="43.61348" lon="4.09309">
        <ele>-4.19</ele>
        <time>2016-09-20T10:49:04Z</time>
      </trkpt>
      <trkpt lat="43.61352" lon="4.09308">
        <ele>-2.27</ele>
        <time>2016-09-20T10:49:27Z</time>
      </trkpt>
      <trkpt lat="43.61349" lon="4.09311">
        <ele>3.02</ele>
        <time>2016-09-20T10:49:47Z</time>
      </trkpt>
      <trkpt lat="43.61346" lon="4.09309">
        <ele>2.54</ele>
        <time>2016-09-20T10:50:15Z</time>
      </trkpt>
      <trkpt lat="43.61348" lon="4.09306">
        <ele>2.06</ele>
        <time>2016-09-20T10:50:36Z</time>
      </trkpt>
      <trkpt lat="43.61343" lon="4.09305">
        <ele>-0.82</ele>
        <time>2016-09-20T10:51:05Z</time>
      </trkpt>
      <trkpt lat="43.61348" lon="4.09305">
        <ele>6.87</ele>
        <time>2016-09-20T10:51:33Z</time>
      </trkpt>
      <trkpt lat="43.6135" lon="4.09301">
        <ele>11.67</ele>
        <time>2016-09-20T10:51:59Z</time>
      </trkpt>
      <trkpt lat="43.61351" lon="4.09304">
        <ele>5.42</ele>
        <time>2016-09-20T10:52:19Z</time>
      </trkpt>
      <trkpt lat="43.61349" lon="4.09305">
        <ele>3.02</ele>
        <time>2016-09-20T10:52:44Z</time>
      </trkpt>
      <trkpt lat="43.6135" lon="4.09305">
        <ele>-1.79</ele>
        <time>2016-09-20T10:53:08Z</time>
      </trkpt>
      <trkpt lat="43.61345" lon="4.09308">
        <ele>-1.3</ele>
        <time>2016-09-20T10:53:27Z</time>
      </trkpt>
      <trkpt lat="43.61347" lon="4.09309">
        <ele>-0.82</ele>
        <time>2016-09-20T10:53:52Z</time>
      </trkpt>
      <trkpt lat="43.61347" lon="4.09305">
        <ele>-3.23</ele>
        <time>2016-09-20T10:54:15Z</time>
      </trkpt>
      <trkpt lat="43.61345" lon="4.09305">
        <ele>-4.67</ele>
        <time>2016-09-20T10:54:42Z</time>
      </trkpt>
      <trkpt lat="43.61346" lon="4.09308">
        <ele>-5.15</ele>
        <time>2016-09-20T10:55:11Z</time>
      </trkpt>
      <trkpt lat="43.61349" lon="4.09306">
        <ele>-3.71</ele>
        <time>2016-09-20T10:55:51Z</time>
      </trkpt>
      <trkpt lat="43.61347" lon="4.09307">
        <ele>-4.19</ele>
        <time>2016-09-20T10:56:33Z</time>
      </trkpt>
      <trkpt lat="43.61346" lon="4.09307">
        <ele>-2.75</ele>
        <time>2016-09-20T10:56:59Z</time>
      </trkpt>
      <trkpt lat="43.61347" lon="4.09308">
        <ele>-0.34</ele>
        <time>2016-09-20T10:57:33Z</time>
      </trkpt>
      <trkpt lat="43.61347" lon="4.09306">
        <ele>-0.82</ele>
        <time>2016-09-20T10:58:00Z</time>
      </trkpt>
      <trkpt lat="43.61346" lon="4.0931">
        <ele>1.1</ele>
        <time>2016-09-20T10:58:27Z</time>
      </trkpt>
      <trkpt lat="43.61346" lon="4.0931">
        <ele>0.62</ele>
        <time>2016-09-20T10:59:01Z</time>
      </trkpt>
      <trkpt lat="43.61345" lon="4.09307">
        <ele>-0.34</ele>
        <time>2016-09-20T10:59:39Z</time>
      </trkpt>
      <trkpt lat="43.61346" lon="4.09306">
        <ele>2.54</ele>
        <time>2016-09-20T11:00:11Z</time>
      </trkpt>
      <trkpt lat="43.61346" lon="4.09308">
        <ele>2.06</ele>
        <time>2016-09-20T11:00:39Z</time>
      </trkpt>
      <trkpt lat="43.61346" lon="4.09306">
        <ele>2.54</ele>
        <time>2016-09-20T11:01:04Z</time>
      </trkpt>
      <trkpt lat="43.61344" lon="4.09305">
        <ele>1.1</ele>
        <time>2016-09-20T11:01:27Z</time>
      </trkpt>
      <trkpt lat="43.61339" lon="4.09303">
        <ele>1.58</ele>
        <time>2016-09-20T11:01:41Z</time>
      </trkpt>
      <trkpt lat="43.61337" lon="4.09304">
        <ele>1.58</ele>
        <time>2016-09-20T11:02:01Z</time>
      </trkpt>
      <trkpt lat="43.61325" lon="4.09304">
        <ele>2.54</ele>
        <time>2016-09-20T11:02:21Z</time>
      </trkpt>
      <trkpt lat="43.6131" lon="4.09295">
        <ele>1.58</ele>
        <time>2016-09-20T11:02:44Z</time>
      </trkpt>
      <trkpt lat="43.61307" lon="4.09284">
        <ele>1.1</ele>
        <time>2016-09-20T11:03:04Z</time>
      </trkpt>
      <trkpt lat="43.61297" lon="4.09284">
        <ele>-0.82</ele>
        <time>2016-09-20T11:03:21Z</time>
      </trkpt>
      <trkpt lat="43.61284" lon="4.093">
        <ele>-1.79</ele>
        <time>2016-09-20T11:03:40Z</time>
      </trkpt>
      <trkpt lat="43.61277" lon="4.09304">
        <ele>-1.3</ele>
        <time>2016-09-20T11:03:58Z</time>
      </trkpt>
      <trkpt lat="43.61269" lon="4.09307">
        <ele>-1.79</ele>
        <time>2016-09-20T11:04:13Z</time>
      </trkpt>
      <trkpt lat="43.61257" lon="4.09307">
        <ele>-1.79</ele>
        <time>2016-09-20T11:04:29Z</time>
      </trkpt>
      <trkpt lat="43.6124" lon="4.09309">
        <ele>-0.82</ele>
        <time>2016-09-20T11:04:48Z</time>
      </trkpt>
      <trkpt lat="43.61223" lon="4.09305">
        <ele>1.1</ele>
        <time>2016-09-20T11:05:10Z</time>
      </trkpt>
      <trkpt lat="43.61216" lon="4.09293">
        <ele>2.54</ele>
        <time>2016-09-20T11:05:28Z</time>
      </trkpt>
      <trkpt lat="43.61212" lon="4.09289">
        <ele>4.46</ele>
        <time>2016-09-20T11:05:44Z</time>
      </trkpt>
      <trkpt lat="43.61212" lon="4.09288">
        <ele>4.46</ele>
        <time>2016-09-20T11:05:45Z</time>
      </trkpt>
      <trkpt lat="43.61196" lon="4.09284">
        <ele>3.98</ele>
        <time>2016-09-20T11:06:04Z</time>
      </trkpt>
      <trkpt lat="43.6118" lon="4.0928">
        <ele>2.54</ele>
        <time>2016-09-20T11:06:22Z</time>
      </trkpt>
      <trkpt lat="43.61166" lon="4.09277">
        <ele>2.06</ele>
        <time>2016-09-20T11:06:41Z</time>
      </trkpt>
      <trkpt lat="43.61162" lon="4.09278">
        <ele>1.58</ele>
        <time>2016-09-20T11:07:00Z</time>
      </trkpt>
      <trkpt lat="43.61155" lon="4.09275">
        <ele>1.58</ele>
        <time>2016-09-20T11:07:19Z</time>
      </trkpt>
      <trkpt lat="43.61155" lon="4.09272">
        <ele>3.02</ele>
        <time>2016-09-20T11:07:41Z</time>
      </trkpt>
      <trkpt lat="43.61154" lon="4.09273">
        <ele>2.54</ele>
        <time>2016-09-20T11:08:16Z</time>
      </trkpt>
      <trkpt lat="43.61154" lon="4.09275">
        <ele>2.06</ele>
        <time>2016-09-20T11:08:51Z</time>
      </trkpt>
      <trkpt lat="43.61153" lon="4.09275">
        <ele>3.02</ele>
        <time>2016-09-20T11:09:16Z</time>
      </trkpt>
      <trkpt lat="43.61154" lon="4.09276">
        <ele>3.98</ele>
        <time>2016-09-20T11:09:38Z</time>
      </trkpt>
      <trkpt lat="43.61155" lon="4.09275">
        <ele>4.46</ele>
        <time>2016-09-20T11:10:12Z</time>
      </trkpt>
      <trkpt lat="43.61157" lon="4.09276">
        <ele>4.94</ele>
        <time>2016-09-20T11:10:39Z</time>
      </trkpt>
      <trkpt lat="43.61161" lon="4.09279">
        <ele>5.42</ele>
        <time>2016-09-20T11:10:59Z</time>
      </trkpt>
      <trkpt lat="43.61174" lon="4.09282">
        <ele>6.39</ele>
        <time>2016-09-20T11:11:20Z</time>
      </trkpt>
      <trkpt lat="43.61189" lon="4.09286">
        <ele>6.39</ele>
        <time>2016-09-20T11:11:41Z</time>
      </trkpt>
      <trkpt lat="43.61208" lon="4.0929">
        <ele>5.91</ele>
        <time>2016-09-20T11:12:03Z</time>
      </trkpt>
      <trkpt lat="43.61221" lon="4.09301">
        <ele>5.42</ele>
        <time>2016-09-20T11:12:21Z</time>
      </trkpt>
      <trkpt lat="43.61224" lon="4.09328">
        <ele>4.94</ele>
        <time>2016-09-20T11:12:43Z</time>
      </trkpt>
      <trkpt lat="43.61225" lon="4.09358">
        <ele>5.91</ele>
        <time>2016-09-20T11:13:05Z</time>
      </trkpt>
      <trkpt lat="43.61227" lon="4.09386">
        <ele>5.91</ele>
        <time>2016-09-20T11:13:27Z</time>
      </trkpt>
      <trkpt lat="43.61229" lon="4.09412">
        <ele>5.91</ele>
        <time>2016-09-20T11:13:48Z</time>
      </trkpt>
      <trkpt lat="43.6123" lon="4.09439">
        <ele>6.87</ele>
        <time>2016-09-20T11:14:08Z</time>
      </trkpt>
      <trkpt lat="43.61233" lon="4.09469">
        <ele>6.87</ele>
        <time>2016-09-20T11:14:30Z</time>
      </trkpt>
      <trkpt lat="43.61235" lon="4.09498">
        <ele>6.39</ele>
        <time>2016-09-20T11:14:53Z</time>
      </trkpt>
      <trkpt lat="43.61237" lon="4.09528">
        <ele>6.87</ele>
        <time>2016-09-20T11:15:15Z</time>
      </trkpt>
      <trkpt lat="43.61239" lon="4.09557">
        <ele>7.83</ele>
        <time>2016-09-20T11:15:37Z</time>
      </trkpt>
      <trkpt lat="43.61241" lon="4.09577">
        <ele>7.83</ele>
        <time>2016-09-20T11:15:51Z</time>
      </trkpt>
      <trkpt lat="43.61243" lon="4.09608">
        <ele>7.83</ele>
        <time>2016-09-20T11:16:14Z</time>
      </trkpt>
      <trkpt lat="43.61246" lon="4.09637">
        <ele>7.35</ele>
        <time>2016-09-20T11:16:35Z</time>
      </trkpt>
      <trkpt lat="43.61247" lon="4.09665">
        <ele>6.39</ele>
        <time>2016-09-20T11:16:54Z</time>
      </trkpt>
      <trkpt lat="43.61249" lon="4.09695">
        <ele>4.94</ele>
        <time>2016-09-20T11:17:14Z</time>
      </trkpt>
      <trkpt lat="43.61251" lon="4.09727">
        <ele>4.94</ele>
        <time>2016-09-20T11:17:37Z</time>
      </trkpt>
      <trkpt lat="43.61253" lon="4.09754">
        <ele>4.46</ele>
        <time>2016-09-20T11:17:56Z</time>
      </trkpt>
      <trkpt lat="43.61252" lon="4.09781">
        <ele>3.5</ele>
        <time>2016-09-20T11:18:15Z</time>
      </trkpt>
      <trkpt lat="43.61255" lon="4.09797">
        <ele>3.02</ele>
        <time>2016-09-20T11:18:31Z</time>
      </trkpt>
      <trkpt lat="43.61257" lon="4.098">
        <ele>3.02</ele>
        <time>2016-09-20T11:18:34Z</time>
      </trkpt>
      <trkpt lat="43.61274" lon="4.098">
        <ele>2.06</ele>
        <time>2016-09-20T11:18:51Z</time>
      </trkpt>
      <trkpt lat="43.61293" lon="4.098">
        <ele>2.54</ele>
        <time>2016-09-20T11:19:09Z</time>
      </trkpt>
      <trkpt lat="43.61308" lon="4.098">
        <ele>2.54</ele>
        <time>2016-09-20T11:19:24Z</time>
      </trkpt>
      <trkpt lat="43.61324" lon="4.09798">
        <ele>2.54</ele>
        <time>2016-09-20T11:19:39Z</time>
      </trkpt>
      <trkpt lat="43.61343" lon="4.09796">
        <ele>3.02</ele>
        <time>2016-09-20T11:19:56Z</time>
      </trkpt>
      <trkpt lat="43.61362" lon="4.09796">
        <ele>4.46</ele>
        <time>2016-09-20T11:20:14Z</time>
      </trkpt>
      <trkpt lat="43.61382" lon="4.09794">
        <ele>5.42</ele>
        <time>2016-09-20T11:20:33Z</time>
      </trkpt>
      <trkpt lat="43.61404" lon="4.09793">
        <ele>6.39</ele>
        <time>2016-09-20T11:20:54Z</time>
      </trkpt>
      <trkpt lat="43.61422" lon="4.09792">
        <ele>6.87</ele>
        <time>2016-09-20T11:21:12Z</time>
      </trkpt>
      <trkpt lat="43.61439" lon="4.09791">
        <ele>6.39</ele>
        <time>2016-09-20T11:21:29Z</time>
      </trkpt>
      <trkpt lat="43.61462" lon="4.09789">
        <ele>5.91</ele>
        <time>2016-09-20T11:21:50Z</time>
      </trkpt>
      <trkpt lat="43.61482" lon="4.09786">
        <ele>5.42</ele>
        <time>2016-09-20T11:22:08Z</time>
      </trkpt>
      <trkpt lat="43.61501" lon="4.09783">
        <ele>5.42</ele>
        <time>2016-09-20T11:22:25Z</time>
      </trkpt>
      <trkpt lat="43.61515" lon="4.09783">
        <ele>5.42</ele>
        <time>2016-09-20T11:22:40Z</time>
      </trkpt>
      <trkpt lat="43.61525" lon="4.09783">
        <ele>5.42</ele>
        <time>2016-09-20T11:22:57Z</time>
      </trkpt>
      <trkpt lat="43.61528" lon="4.09782">
        <ele>5.42</ele>
        <time>2016-09-20T11:23:15Z</time>
      </trkpt>
      <trkpt lat="43.61532" lon="4.09782">
        <ele>5.42</ele>
        <time>2016-09-20T11:23:35Z</time>
      </trkpt>
      <trkpt lat="43.61533" lon="4.09782">
        <ele>3.98</ele>
        <time>2016-09-20T11:24:03Z</time>
      </trkpt>
      <trkpt lat="43.61537" lon="4.09782">
        <ele>4.94</ele>
        <time>2016-09-20T11:24:23Z</time>
      </trkpt>
      <trkpt lat="43.61554" lon="4.09779">
        <ele>5.91</ele>
        <time>2016-09-20T11:24:42Z</time>
      </trkpt>
      <trkpt lat="43.61568" lon="4.09777">
        <ele>6.39</ele>
        <time>2016-09-20T11:25:00Z</time>
      </trkpt>
      <trkpt lat="43.6157" lon="4.09777">
        <ele>6.87</ele>
        <time>2016-09-20T11:25:02Z</time>
      </trkpt>
      <trkpt lat="43.61581" lon="4.09777">
        <ele>7.35</ele>
        <time>2016-09-20T11:25:20Z</time>
      </trkpt>
      <trkpt lat="43.61596" lon="4.09782">
        <ele>6.87</ele>
        <time>2016-09-20T11:25:39Z</time>
      </trkpt>
      <trkpt lat="43.61615" lon="4.09778">
        <ele>5.42</ele>
        <time>2016-09-20T11:26:00Z</time>
      </trkpt>
      <trkpt lat="43.61631" lon="4.09775">
        <ele>5.42</ele>
        <time>2016-09-20T11:26:18Z</time>
      </trkpt>
      <trkpt lat="43.61653" lon="4.09777">
        <ele>5.42</ele>
        <time>2016-09-20T11:26:39Z</time>
      </trkpt>
      <trkpt lat="43.61671" lon="4.09771">
        <ele>6.39</ele>
        <time>2016-09-20T11:26:59Z</time>
      </trkpt>
      <trkpt lat="43.61681" lon="4.09771">
        <ele>7.35</ele>
        <time>2016-09-20T11:27:13Z</time>
      </trkpt>
      <trkpt lat="43.61701" lon="4.0977">
        <ele>7.83</ele>
        <time>2016-09-20T11:27:33Z</time>
      </trkpt>
      <trkpt lat="43.61722" lon="4.09769">
        <ele>7.83</ele>
        <time>2016-09-20T11:27:54Z</time>
      </trkpt>
      <trkpt lat="43.61744" lon="4.09769">
        <ele>6.87</ele>
        <time>2016-09-20T11:28:17Z</time>
      </trkpt>
      <trkpt lat="43.61763" lon="4.09765">
        <ele>5.91</ele>
        <time>2016-09-20T11:28:37Z</time>
      </trkpt>
      <trkpt lat="43.6178" lon="4.09766">
        <ele>5.91</ele>
        <time>2016-09-20T11:28:57Z</time>
      </trkpt>
      <trkpt lat="43.61793" lon="4.09765">
        <ele>5.91</ele>
        <time>2016-09-20T11:29:15Z</time>
      </trkpt>
      <trkpt lat="43.61796" lon="4.09766">
        <ele>6.39</ele>
        <time>2016-09-20T11:29:39Z</time>
      </trkpt>
      <trkpt lat="43.61803" lon="4.09761">
        <ele>4.46</ele>
        <time>2016-09-20T11:29:55Z</time>
      </trkpt>
      <trkpt lat="43.61816" lon="4.0976">
        <ele>3.5</ele>
        <time>2016-09-20T11:30:15Z</time>
      </trkpt>
      <trkpt lat="43.61836" lon="4.09763">
        <ele>4.94</ele>
        <time>2016-09-20T11:30:36Z</time>
      </trkpt>
      <trkpt lat="43.61853" lon="4.09761">
        <ele>4.94</ele>
        <time>2016-09-20T11:30:54Z</time>
      </trkpt>
      <trkpt lat="43.61863" lon="4.0976">
        <ele>4.46</ele>
        <time>2016-09-20T11:31:05Z</time>
      </trkpt>
      <trkpt lat="43.61877" lon="4.09757">
        <ele>4.94</ele>
        <time>2016-09-20T11:31:22Z</time>
      </trkpt>
      <trkpt lat="43.61891" lon="4.09757">
        <ele>4.46</ele>
        <time>2016-09-20T11:31:39Z</time>
      </trkpt>
      <trkpt lat="43.61911" lon="4.09755">
        <ele>3.02</ele>
        <time>2016-09-20T11:31:59Z</time>
      </trkpt>
      <trkpt lat="43.6193" lon="4.09753">
        <ele>2.06</ele>
        <time>2016-09-20T11:32:18Z</time>
      </trkpt>
      <trkpt lat="43.61946" lon="4.09749">
        <ele>2.06</ele>
        <time>2016-09-20T11:32:33Z</time>
      </trkpt>
      <trkpt lat="43.61962" lon="4.09744">
        <ele>2.06</ele>
        <time>2016-09-20T11:32:48Z</time>
      </trkpt>
      <trkpt lat="43.61985" lon="4.09736">
        <ele>1.1</ele>
        <time>2016-09-20T11:33:10Z</time>
      </trkpt>
      <trkpt lat="43.62003" lon="4.09728">
        <ele>1.58</ele>
        <time>2016-09-20T11:33:29Z</time>
      </trkpt>
      <trkpt lat="43.62017" lon="4.09724">
        <ele>2.06</ele>
        <time>2016-09-20T11:33:46Z</time>
      </trkpt>
      <trkpt lat="43.62028" lon="4.09721">
        <ele>1.58</ele>
        <time>2016-09-20T11:34:05Z</time>
      </trkpt>
      <trkpt lat="43.62045" lon="4.09714">
        <ele>1.58</ele>
        <time>2016-09-20T11:34:23Z</time>
      </trkpt>
      <trkpt lat="43.62064" lon="4.09707">
        <ele>2.54</ele>
        <time>2016-09-20T11:34:43Z</time>
      </trkpt>
      <trkpt lat="43.62086" lon="4.097">
        <ele>2.54</ele>
        <time>2016-09-20T11:35:04Z</time>
      </trkpt>
      <trkpt lat="43.6211" lon="4.09694">
        <ele>2.06</ele>
        <time>2016-09-20T11:35:26Z</time>
      </trkpt>
      <trkpt lat="43.6213" lon="4.09686">
        <ele>3.02</ele>
        <time>2016-09-20T11:35:46Z</time>
      </trkpt>
      <trkpt lat="43.62134" lon="4.09684">
        <ele>2.54</ele>
        <time>2016-09-20T11:35:50Z</time>
      </trkpt>
      <trkpt lat="43.62157" lon="4.09676">
        <ele>2.54</ele>
        <time>2016-09-20T11:36:13Z</time>
      </trkpt>
      <trkpt lat="43.6218" lon="4.09668">
        <ele>2.54</ele>
        <time>2016-09-20T11:36:34Z</time>
      </trkpt>
      <trkpt lat="43.62205" lon="4.0966">
        <ele>2.06</ele>
        <time>2016-09-20T11:36:57Z</time>
      </trkpt>
      <trkpt lat="43.62224" lon="4.09654">
        <ele>0.62</ele>
        <time>2016-09-20T11:37:15Z</time>
      </trkpt>
      <trkpt lat="43.62243" lon="4.09646">
        <ele>0.62</ele>
        <time>2016-09-20T11:37:36Z</time>
      </trkpt>
      <trkpt lat="43.62265" lon="4.09642">
        <ele>0.62</ele>
        <time>2016-09-20T11:37:59Z</time>
      </trkpt>
      <trkpt lat="43.62286" lon="4.09633">
        <ele>1.58</ele>
        <time>2016-09-20T11:38:19Z</time>
      </trkpt>
      <trkpt lat="43.62305" lon="4.09627">
        <ele>2.06</ele>
        <time>2016-09-20T11:38:38Z</time>
      </trkpt>
      <trkpt lat="43.62325" lon="4.09619">
        <ele>1.58</ele>
        <time>2016-09-20T11:38:58Z</time>
      </trkpt>
      <trkpt lat="43.62346" lon="4.09612">
        <ele>2.06</ele>
        <time>2016-09-20T11:39:19Z</time>
      </trkpt>
      <trkpt lat="43.62366" lon="4.09607">
        <ele>2.06</ele>
        <time>2016-09-20T11:39:39Z</time>
      </trkpt>
      <trkpt lat="43.62389" lon="4.09603">
        <ele>3.02</ele>
        <time>2016-09-20T11:40:01Z</time>
      </trkpt>
      <trkpt lat="43.62399" lon="4.09598">
        <ele>3.5</ele>
        <time>2016-09-20T11:40:17Z</time>
      </trkpt>
      <trkpt lat="43.62414" lon="4.09592">
        <ele>2.54</ele>
        <time>2016-09-20T11:40:35Z</time>
      </trkpt>
      <trkpt lat="43.62424" lon="4.09587">
        <ele>3.02</ele>
        <time>2016-09-20T11:40:54Z</time>
      </trkpt>
      <trkpt lat="43.62427" lon="4.09586">
        <ele>2.54</ele>
        <time>2016-09-20T11:41:18Z</time>
      </trkpt>
      <trkpt lat="43.62433" lon="4.09584">
        <ele>2.54</ele>
        <time>2016-09-20T11:41:42Z</time>
      </trkpt>
      <trkpt lat="43.62433" lon="4.09583">
        <ele>3.02</ele>
        <time>2016-09-20T11:42:06Z</time>
      </trkpt>
      <trkpt lat="43.62425" lon="4.09572">
        <ele>2.54</ele>
        <time>2016-09-20T11:42:21Z</time>
      </trkpt>
      <trkpt lat="43.62418" lon="4.09553">
        <ele>2.54</ele>
        <time>2016-09-20T11:42:35Z</time>
      </trkpt>
      <trkpt lat="43.62414" lon="4.09526">
        <ele>3.02</ele>
        <time>2016-09-20T11:42:53Z</time>
      </trkpt>
      <trkpt lat="43.62414" lon="4.09516">
        <ele>3.02</ele>
        <time>2016-09-20T11:43:07Z</time>
      </trkpt>
      <trkpt lat="43.62414" lon="4.09511">
        <ele>3.02</ele>
        <time>2016-09-20T11:43:11Z</time>
      </trkpt>
      <trkpt lat="43.62413" lon="4.09508">
        <ele>3.02</ele>
        <time>2016-09-20T11:43:13Z</time>
      </trkpt>
      <trkpt lat="43.62411" lon="4.09484">
        <ele>2.06</ele>
        <time>2016-09-20T11:43:30Z</time>
      </trkpt>
      <trkpt lat="43.62406" lon="4.09458">
        <ele>2.06</ele>
        <time>2016-09-20T11:43:48Z</time>
      </trkpt>
      <trkpt lat="43.62401" lon="4.09428">
        <ele>2.54</ele>
        <time>2016-09-20T11:44:09Z</time>
      </trkpt>
      <trkpt lat="43.62395" lon="4.09394">
        <ele>3.02</ele>
        <time>2016-09-20T11:44:31Z</time>
      </trkpt>
      <trkpt lat="43.62395" lon="4.09369">
        <ele>3.02</ele>
        <time>2016-09-20T11:44:49Z</time>
      </trkpt>
      <trkpt lat="43.62402" lon="4.09341">
        <ele>2.54</ele>
        <time>2016-09-20T11:45:08Z</time>
      </trkpt>
      <trkpt lat="43.6241" lon="4.09316">
        <ele>2.06</ele>
        <time>2016-09-20T11:45:26Z</time>
      </trkpt>
      <trkpt lat="43.62415" lon="4.09295">
        <ele>1.1</ele>
        <time>2016-09-20T11:45:41Z</time>
      </trkpt>
      <trkpt lat="43.62423" lon="4.09269">
        <ele>1.58</ele>
        <time>2016-09-20T11:45:59Z</time>
      </trkpt>
      <trkpt lat="43.62429" lon="4.09245">
        <ele>3.02</ele>
        <time>2016-09-20T11:46:16Z</time>
      </trkpt>
      <trkpt lat="43.62436" lon="4.0922">
        <ele>3.98</ele>
        <time>2016-09-20T11:46:34Z</time>
      </trkpt>
      <trkpt lat="43.62442" lon="4.09192">
        <ele>4.94</ele>
        <time>2016-09-20T11:46:54Z</time>
      </trkpt>
      <trkpt lat="43.6245" lon="4.09163">
        <ele>3.98</ele>
        <time>2016-09-20T11:47:15Z</time>
      </trkpt>
      <trkpt lat="43.62468" lon="4.09145">
        <ele>3.98</ele>
        <time>2016-09-20T11:47:36Z</time>
      </trkpt>
      <trkpt lat="43.62484" lon="4.09145">
        <ele>3.98</ele>
        <time>2016-09-20T11:47:52Z</time>
      </trkpt>
      <trkpt lat="43.62503" lon="4.09144">
        <ele>4.46</ele>
        <time>2016-09-20T11:48:10Z</time>
      </trkpt>
      <trkpt lat="43.62521" lon="4.09145">
        <ele>4.46</ele>
        <time>2016-09-20T11:48:28Z</time>
      </trkpt>
      <trkpt lat="43.62541" lon="4.09148">
        <ele>4.94</ele>
        <time>2016-09-20T11:48:47Z</time>
      </trkpt>
      <trkpt lat="43.62561" lon="4.09157">
        <ele>4.94</ele>
        <time>2016-09-20T11:49:08Z</time>
      </trkpt>
      <trkpt lat="43.62575" lon="4.09151">
        <ele>6.39</ele>
        <time>2016-09-20T11:49:26Z</time>
      </trkpt>
      <trkpt lat="43.62582" lon="4.09136">
        <ele>7.35</ele>
        <time>2016-09-20T11:49:46Z</time>
      </trkpt>
      <trkpt lat="43.62587" lon="4.0912">
        <ele>6.87</ele>
        <time>2016-09-20T11:50:07Z</time>
      </trkpt>
      <trkpt lat="43.62587" lon="4.09112">
        <ele>7.35</ele>
        <time>2016-09-20T11:50:25Z</time>
      </trkpt>
      <trkpt lat="43.62582" lon="4.09105">
        <ele>9.27</ele>
        <time>2016-09-20T11:50:46Z</time>
      </trkpt>
      <trkpt lat="43.62562" lon="4.09098">
        <ele>9.27</ele>
        <time>2016-09-20T11:51:06Z</time>
      </trkpt>
      <trkpt lat="43.6254" lon="4.091">
        <ele>9.27</ele>
        <time>2016-09-20T11:51:27Z</time>
      </trkpt>
      <trkpt lat="43.62523" lon="4.09102">
        <ele>10.23</ele>
        <time>2016-09-20T11:51:43Z</time>
      </trkpt>
      <trkpt lat="43.62506" lon="4.09105">
        <ele>8.31</ele>
        <time>2016-09-20T11:51:59Z</time>
      </trkpt>
      <trkpt lat="43.62488" lon="4.09106">
        <ele>9.75</ele>
        <time>2016-09-20T11:52:17Z</time>
      </trkpt>
      <trkpt lat="43.62469" lon="4.09109">
        <ele>11.19</ele>
        <time>2016-09-20T11:52:35Z</time>
      </trkpt>
      <trkpt lat="43.62451" lon="4.0911">
        <ele>10.71</ele>
        <time>2016-09-20T11:52:51Z</time>
      </trkpt>
      <trkpt lat="43.6243" lon="4.09112">
        <ele>9.75</ele>
        <time>2016-09-20T11:53:11Z</time>
      </trkpt>
      <trkpt lat="43.6241" lon="4.09117">
        <ele>9.75</ele>
        <time>2016-09-20T11:53:31Z</time>
      </trkpt>
      <trkpt lat="43.62396" lon="4.0912">
        <ele>9.27</ele>
        <time>2016-09-20T11:53:44Z</time>
      </trkpt>
      <trkpt lat="43.6238" lon="4.09125">
        <ele>7.83</ele>
        <time>2016-09-20T11:53:59Z</time>
      </trkpt>
      <trkpt lat="43.62375" lon="4.09129">
        <ele>7.83</ele>
        <time>2016-09-20T11:54:05Z</time>
      </trkpt>
      <trkpt lat="43.6236" lon="4.09132">
        <ele>7.35</ele>
        <time>2016-09-20T11:54:20Z</time>
      </trkpt>
      <trkpt lat="43.62343" lon="4.09137">
        <ele>7.35</ele>
        <time>2016-09-20T11:54:36Z</time>
      </trkpt>
      <trkpt lat="43.62325" lon="4.09142">
        <ele>7.83</ele>
        <time>2016-09-20T11:54:53Z</time>
      </trkpt>
      <trkpt lat="43.62309" lon="4.09145">
        <ele>7.35</ele>
        <time>2016-09-20T11:55:08Z</time>
      </trkpt>
      <trkpt lat="43.62296" lon="4.09147">
        <ele>7.35</ele>
        <time>2016-09-20T11:55:20Z</time>
      </trkpt>
      <trkpt lat="43.62281" lon="4.09149">
        <ele>7.83</ele>
        <time>2016-09-20T11:55:34Z</time>
      </trkpt>
      <trkpt lat="43.62275" lon="4.0915">
        <ele>7.83</ele>
        <time>2016-09-20T11:55:41Z</time>
      </trkpt>
      <trkpt lat="43.62259" lon="4.09155">
        <ele>8.79</ele>
        <time>2016-09-20T11:55:56Z</time>
      </trkpt>
      <trkpt lat="43.62252" lon="4.09157">
        <ele>8.79</ele>
        <time>2016-09-20T11:56:03Z</time>
      </trkpt>
      <trkpt lat="43.62234" lon="4.09165">
        <ele>7.83</ele>
        <time>2016-09-20T11:56:22Z</time>
      </trkpt>
      <trkpt lat="43.62218" lon="4.09167">
        <ele>7.35</ele>
        <time>2016-09-20T11:56:39Z</time>
      </trkpt>
      <trkpt lat="43.62214" lon="4.09154">
        <ele>6.87</ele>
        <time>2016-09-20T11:56:52Z</time>
      </trkpt>
      <trkpt lat="43.62214" lon="4.09144">
        <ele>6.39</ele>
        <time>2016-09-20T11:57:00Z</time>
      </trkpt>
      <trkpt lat="43.62215" lon="4.09121">
        <ele>5.42</ele>
        <time>2016-09-20T11:57:16Z</time>
      </trkpt>
      <trkpt lat="43.6221" lon="4.09096">
        <ele>4.94</ele>
        <time>2016-09-20T11:57:34Z</time>
      </trkpt>
      <trkpt lat="43.62206" lon="4.09071">
        <ele>5.42</ele>
        <time>2016-09-20T11:57:51Z</time>
      </trkpt>
      <trkpt lat="43.62205" lon="4.0905">
        <ele>6.39</ele>
        <time>2016-09-20T11:58:06Z</time>
      </trkpt>
      <trkpt lat="43.62202" lon="4.09027">
        <ele>7.83</ele>
        <time>2016-09-20T11:58:22Z</time>
      </trkpt>
      <trkpt lat="43.62196" lon="4.09006">
        <ele>8.31</ele>
        <time>2016-09-20T11:58:38Z</time>
      </trkpt>
      <trkpt lat="43.62195" lon="4.09004">
        <ele>8.31</ele>
        <time>2016-09-20T11:58:40Z</time>
      </trkpt>
      <trkpt lat="43.62186" lon="4.08987">
        <ele>8.79</ele>
        <time>2016-09-20T11:58:57Z</time>
      </trkpt>
      <trkpt lat="43.62183" lon="4.08982">
        <ele>8.79</ele>
        <time>2016-09-20T11:59:02Z</time>
      </trkpt>
      <trkpt lat="43.62169" lon="4.08978">
        <ele>8.79</ele>
        <time>2016-09-20T11:59:17Z</time>
      </trkpt>
      <trkpt lat="43.62153" lon="4.08974">
        <ele>9.75</ele>
        <time>2016-09-20T11:59:32Z</time>
      </trkpt>
      <trkpt lat="43.62136" lon="4.08974">
        <ele>11.67</ele>
        <time>2016-09-20T11:59:48Z</time>
      </trkpt>
      <trkpt lat="43.62136" lon="4.08971">
        <ele>10.71</ele>
        <time>2016-09-20T12:00:00Z</time>
      </trkpt>
      <trkpt lat="43.62135" lon="4.0897">
        <ele>10.23</ele>
        <time>2016-09-20T12:00:30Z</time>
      </trkpt>
      <trkpt lat="43.62134" lon="4.08972">
        <ele>8.79</ele>
        <time>2016-09-20T12:00:52Z</time>
      </trkpt>
      <trkpt lat="43.6212" lon="4.08972">
        <ele>9.75</ele>
        <time>2016-09-20T12:01:06Z</time>
      </trkpt>
      <trkpt lat="43.62106" lon="4.08974">
        <ele>10.23</ele>
        <time>2016-09-20T12:01:19Z</time>
      </trkpt>
      <trkpt lat="43.62092" lon="4.08975">
        <ele>10.23</ele>
        <time>2016-09-20T12:01:33Z</time>
      </trkpt>
      <trkpt lat="43.62086" lon="4.08976">
        <ele>10.23</ele>
        <time>2016-09-20T12:01:50Z</time>
      </trkpt>
      <trkpt lat="43.62078" lon="4.08978">
        <ele>9.75</ele>
        <time>2016-09-20T12:02:04Z</time>
      </trkpt>
      <trkpt lat="43.62078" lon="4.08979">
        <ele>8.79</ele>
        <time>2016-09-20T12:02:19Z</time>
      </trkpt>
      <trkpt lat="43.62069" lon="4.08979">
        <ele>7.35</ele>
        <time>2016-09-20T12:02:32Z</time>
      </trkpt>
      <trkpt lat="43.62057" lon="4.08981">
        <ele>7.35</ele>
        <time>2016-09-20T12:02:46Z</time>
      </trkpt>
      <trkpt lat="43.62052" lon="4.08977">
        <ele>5.42</ele>
        <time>2016-09-20T12:03:03Z</time>
      </trkpt>
      <trkpt lat="43.62044" lon="4.08963">
        <ele>5.42</ele>
        <time>2016-09-20T12:03:17Z</time>
      </trkpt>
      <trkpt lat="43.62035" lon="4.08941">
        <ele>6.39</ele>
        <time>2016-09-20T12:03:36Z</time>
      </trkpt>
      <trkpt lat="43.62035" lon="4.08939">
        <ele>6.39</ele>
        <time>2016-09-20T12:03:37Z</time>
      </trkpt>
      <trkpt lat="43.62024" lon="4.08923">
        <ele>6.39</ele>
        <time>2016-09-20T12:03:53Z</time>
      </trkpt>
      <trkpt lat="43.62019" lon="4.08919">
        <ele>5.91</ele>
        <time>2016-09-20T12:04:05Z</time>
      </trkpt>
      <trkpt lat="43.62016" lon="4.08914">
        <ele>5.42</ele>
        <time>2016-09-20T12:04:26Z</time>
      </trkpt>
      <trkpt lat="43.62003" lon="4.08897">
        <ele>4.94</ele>
        <time>2016-09-20T12:04:43Z</time>
      </trkpt>
      <trkpt lat="43.62" lon="4.08888">
        <ele>4.94</ele>
        <time>2016-09-20T12:04:56Z</time>
      </trkpt>
      <trkpt lat="43.6199" lon="4.08878">
        <ele>4.94</ele>
        <time>2016-09-20T12:05:11Z</time>
      </trkpt>
      <trkpt lat="43.61986" lon="4.08872">
        <ele>5.42</ele>
        <time>2016-09-20T12:05:16Z</time>
      </trkpt>
      <trkpt lat="43.61975" lon="4.08849">
        <ele>6.39</ele>
        <time>2016-09-20T12:05:32Z</time>
      </trkpt>
      <trkpt lat="43.61964" lon="4.08822">
        <ele>6.39</ele>
        <time>2016-09-20T12:05:52Z</time>
      </trkpt>
      <trkpt lat="43.61957" lon="4.08809">
        <ele>6.87</ele>
        <time>2016-09-20T12:06:08Z</time>
      </trkpt>
      <trkpt lat="43.6195" lon="4.08791">
        <ele>5.42</ele>
        <time>2016-09-20T12:06:23Z</time>
      </trkpt>
      <trkpt lat="43.61943" lon="4.08773">
        <ele>3.98</ele>
        <time>2016-09-20T12:06:39Z</time>
      </trkpt>
      <trkpt lat="43.61933" lon="4.08749">
        <ele>4.94</ele>
        <time>2016-09-20T12:06:57Z</time>
      </trkpt>
      <trkpt lat="43.61921" lon="4.08728">
        <ele>4.46</ele>
        <time>2016-09-20T12:07:14Z</time>
      </trkpt>
      <trkpt lat="43.6191" lon="4.08703">
        <ele>3.98</ele>
        <time>2016-09-20T12:07:33Z</time>
      </trkpt>
      <trkpt lat="43.619" lon="4.0868">
        <ele>3.98</ele>
        <time>2016-09-20T12:07:50Z</time>
      </trkpt>
      <trkpt lat="43.61895" lon="4.08668">
        <ele>3.98</ele>
        <time>2016-09-20T12:07:59Z</time>
      </trkpt>
      <trkpt lat="43.61885" lon="4.08644">
        <ele>4.46</ele>
        <time>2016-09-20T12:08:17Z</time>
      </trkpt>
      <trkpt lat="43.61876" lon="4.08623">
        <ele>4.46</ele>
        <time>2016-09-20T12:08:33Z</time>
      </trkpt>
      <trkpt lat="43.61868" lon="4.086">
        <ele>4.94</ele>
        <time>2016-09-20T12:08:50Z</time>
      </trkpt>
      <trkpt lat="43.61861" lon="4.08579">
        <ele>4.46</ele>
        <time>2016-09-20T12:09:06Z</time>
      </trkpt>
      <trkpt lat="43.61853" lon="4.08553">
        <ele>4.46</ele>
        <time>2016-09-20T12:09:24Z</time>
      </trkpt>
      <trkpt lat="43.61853" lon="4.08545">
        <ele>3.98</ele>
        <time>2016-09-20T12:09:29Z</time>
      </trkpt>
      <trkpt lat="43.61856" lon="4.08522">
        <ele>3.98</ele>
        <time>2016-09-20T12:09:45Z</time>
      </trkpt>
      <trkpt lat="43.61862" lon="4.08497">
        <ele>2.06</ele>
        <time>2016-09-20T12:10:03Z</time>
      </trkpt>
      <trkpt lat="43.61863" lon="4.08473">
        <ele>1.1</ele>
        <time>2016-09-20T12:10:19Z</time>
      </trkpt>
      <trkpt lat="43.61865" lon="4.08443">
        <ele>2.54</ele>
        <time>2016-09-20T12:10:39Z</time>
      </trkpt>
      <trkpt lat="43.61864" lon="4.08413">
        <ele>4.46</ele>
        <time>2016-09-20T12:10:58Z</time>
      </trkpt>
      <trkpt lat="43.61864" lon="4.08387">
        <ele>6.39</ele>
        <time>2016-09-20T12:11:16Z</time>
      </trkpt>
      <trkpt lat="43.61862" lon="4.08364">
        <ele>6.87</ele>
        <time>2016-09-20T12:11:32Z</time>
      </trkpt>
      <trkpt lat="43.61861" lon="4.08338">
        <ele>5.91</ele>
        <time>2016-09-20T12:11:51Z</time>
      </trkpt>
      <trkpt lat="43.6186" lon="4.08316">
        <ele>5.42</ele>
        <time>2016-09-20T12:12:09Z</time>
      </trkpt>
      <trkpt lat="43.61857" lon="4.08291">
        <ele>3.98</ele>
        <time>2016-09-20T12:12:29Z</time>
      </trkpt>
      <trkpt lat="43.61851" lon="4.08268">
        <ele>2.54</ele>
        <time>2016-09-20T12:12:50Z</time>
      </trkpt>
      <trkpt lat="43.61844" lon="4.08263">
        <ele>2.06</ele>
        <time>2016-09-20T12:13:07Z</time>
      </trkpt>
      <trkpt lat="43.61842" lon="4.08265">
        <ele>-1.3</ele>
        <time>2016-09-20T12:13:33Z</time>
      </trkpt>
      <trkpt lat="43.6184" lon="4.0826">
        <ele>0.14</ele>
        <time>2016-09-20T12:14:01Z</time>
      </trkpt>
      <trkpt lat="43.61838" lon="4.08262">
        <ele>-0.82</ele>
        <time>2016-09-20T12:14:32Z</time>
      </trkpt>
      <trkpt lat="43.61837" lon="4.08264">
        <ele>1.1</ele>
        <time>2016-09-20T12:15:02Z</time>
      </trkpt>
      <trkpt lat="43.61827" lon="4.08261">
        <ele>0.62</ele>
        <time>2016-09-20T12:15:24Z</time>
      </trkpt>
      <trkpt lat="43.61808" lon="4.0826">
        <ele>2.06</ele>
        <time>2016-09-20T12:15:43Z</time>
      </trkpt>
      <trkpt lat="43.61791" lon="4.08259">
        <ele>0.14</ele>
        <time>2016-09-20T12:16:01Z</time>
      </trkpt>
      <trkpt lat="43.61774" lon="4.08256">
        <ele>-2.75</ele>
        <time>2016-09-20T12:16:21Z</time>
      </trkpt>
      <trkpt lat="43.61754" lon="4.08247">
        <ele>-5.15</ele>
        <time>2016-09-20T12:16:41Z</time>
      </trkpt>
      <trkpt lat="43.61734" lon="4.08241">
        <ele>-2.75</ele>
        <time>2016-09-20T12:17:02Z</time>
      </trkpt>
      <trkpt lat="43.61725" lon="4.0824">
        <ele>-2.75</ele>
        <time>2016-09-20T12:17:21Z</time>
      </trkpt>
      <trkpt lat="43.61707" lon="4.0824">
        <ele>-1.3</ele>
        <time>2016-09-20T12:17:41Z</time>
      </trkpt>
      <trkpt lat="43.61685" lon="4.08243">
        <ele>-0.82</ele>
        <time>2016-09-20T12:18:01Z</time>
      </trkpt>
      <trkpt lat="43.61676" lon="4.08243">
        <ele>-1.79</ele>
        <time>2016-09-20T12:18:18Z</time>
      </trkpt>
      <trkpt lat="43.61666" lon="4.08244">
        <ele>-1.79</ele>
        <time>2016-09-20T12:18:28Z</time>
      </trkpt>
      <trkpt lat="43.61658" lon="4.08243">
        <ele>-1.3</ele>
        <time>2016-09-20T12:18:45Z</time>
      </trkpt>
      <trkpt lat="43.61654" lon="4.08244">
        <ele>-0.82</ele>
        <time>2016-09-20T12:19:07Z</time>
      </trkpt>
      <trkpt lat="43.61655" lon="4.0824">
        <ele>-1.3</ele>
        <time>2016-09-20T12:19:30Z</time>
      </trkpt>
      <trkpt lat="43.61654" lon="4.08231">
        <ele>-0.82</ele>
        <time>2016-09-20T12:19:46Z</time>
      </trkpt>
      <trkpt lat="43.61654" lon="4.08224">
        <ele>1.1</ele>
        <time>2016-09-20T12:20:02Z</time>
      </trkpt>
      <trkpt lat="43.61654" lon="4.08212">
        <ele>1.58</ele>
        <time>2016-09-20T12:20:18Z</time>
      </trkpt>
      <trkpt lat="43.61653" lon="4.08199">
        <ele>0.62</ele>
        <time>2016-09-20T12:20:34Z</time>
      </trkpt>
      <trkpt lat="43.61651" lon="4.08189">
        <ele>0.14</ele>
        <time>2016-09-20T12:20:44Z</time>
      </trkpt>
      <trkpt lat="43.61636" lon="4.08185">
        <ele>-0.82</ele>
        <time>2016-09-20T12:21:00Z</time>
      </trkpt>
      <trkpt lat="43.6163" lon="4.08174">
        <ele>-1.79</ele>
        <time>2016-09-20T12:21:15Z</time>
      </trkpt>
      <trkpt lat="43.6163" lon="4.08152">
        <ele>-1.79</ele>
        <time>2016-09-20T12:21:33Z</time>
      </trkpt>
      <trkpt lat="43.61631" lon="4.08126">
        <ele>-1.79</ele>
        <time>2016-09-20T12:21:53Z</time>
      </trkpt>
      <trkpt lat="43.61622" lon="4.08107">
        <ele>-0.34</ele>
        <time>2016-09-20T12:22:10Z</time>
      </trkpt>
      <trkpt lat="43.61615" lon="4.08085">
        <ele>0.62</ele>
        <time>2016-09-20T12:22:29Z</time>
      </trkpt>
      <trkpt lat="43.61612" lon="4.08059">
        <ele>0.62</ele>
        <time>2016-09-20T12:22:49Z</time>
      </trkpt>
      <trkpt lat="43.61606" lon="4.08037">
        <ele>1.1</ele>
        <time>2016-09-20T12:23:07Z</time>
      </trkpt>
      <trkpt lat="43.61597" lon="4.08014">
        <ele>0.62</ele>
        <time>2016-09-20T12:23:24Z</time>
      </trkpt>
      <trkpt lat="43.61585" lon="4.07999">
        <ele>1.1</ele>
        <time>2016-09-20T12:23:39Z</time>
      </trkpt>
      <trkpt lat="43.61574" lon="4.07985">
        <ele>1.1</ele>
        <time>2016-09-20T12:23:54Z</time>
      </trkpt>
      <trkpt lat="43.61561" lon="4.07971">
        <ele>1.58</ele>
        <time>2016-09-20T12:24:10Z</time>
      </trkpt>
      <trkpt lat="43.61546" lon="4.07964">
        <ele>1.58</ele>
        <time>2016-09-20T12:24:25Z</time>
      </trkpt>
      <trkpt lat="43.61533" lon="4.07957">
        <ele>2.54</ele>
        <time>2016-09-20T12:24:41Z</time>
      </trkpt>
      <trkpt lat="43.61524" lon="4.07953">
        <ele>3.02</ele>
        <time>2016-09-20T12:24:58Z</time>
      </trkpt>
      <trkpt lat="43.61523" lon="4.07953">
        <ele>0.62</ele>
        <time>2016-09-20T12:25:27Z</time>
      </trkpt>
      <trkpt lat="43.61521" lon="4.07951">
        <ele>0.14</ele>
        <time>2016-09-20T12:25:43Z</time>
      </trkpt>
      <trkpt lat="43.61515" lon="4.07945">
        <ele>-0.34</ele>
        <time>2016-09-20T12:25:59Z</time>
      </trkpt>
      <trkpt lat="43.61505" lon="4.0794">
        <ele>-0.34</ele>
        <time>2016-09-20T12:26:14Z</time>
      </trkpt>
      <trkpt lat="43.61501" lon="4.07939">
        <ele>0.14</ele>
        <time>2016-09-20T12:26:19Z</time>
      </trkpt>
      <trkpt lat="43.61482" lon="4.07938">
        <ele>0.14</ele>
        <time>2016-09-20T12:26:39Z</time>
      </trkpt>
      <trkpt lat="43.61467" lon="4.07937">
        <ele>1.1</ele>
        <time>2016-09-20T12:26:56Z</time>
      </trkpt>
      <trkpt lat="43.61453" lon="4.07936">
        <ele>0.62</ele>
        <time>2016-09-20T12:27:12Z</time>
      </trkpt>
      <trkpt lat="43.61437" lon="4.07932">
        <ele>1.1</ele>
        <time>2016-09-20T12:27:30Z</time>
      </trkpt>
      <trkpt lat="43.61435" lon="4.07911">
        <ele>0.14</ele>
        <time>2016-09-20T12:27:47Z</time>
      </trkpt>
      <trkpt lat="43.61431" lon="4.07883">
        <ele>0.14</ele>
        <time>2016-09-20T12:28:10Z</time>
      </trkpt>
      <trkpt lat="43.6143" lon="4.07868">
        <ele>-0.34</ele>
        <time>2016-09-20T12:28:23Z</time>
      </trkpt>
      <trkpt lat="43.61442" lon="4.07857">
        <ele>-0.34</ele>
        <time>2016-09-20T12:28:38Z</time>
      </trkpt>
      <trkpt lat="43.61454" lon="4.07842">
        <ele>-0.34</ele>
        <time>2016-09-20T12:28:56Z</time>
      </trkpt>
      <trkpt lat="43.61466" lon="4.07828">
        <ele>1.1</ele>
        <time>2016-09-20T12:29:11Z</time>
      </trkpt>
      <trkpt lat="43.61478" lon="4.07813">
        <ele>1.58</ele>
        <time>2016-09-20T12:29:27Z</time>
      </trkpt>
      <trkpt lat="43.61493" lon="4.07801">
        <ele>0.14</ele>
        <time>2016-09-20T12:29:43Z</time>
      </trkpt>
      <trkpt lat="43.61505" lon="4.07792">
        <ele>-0.34</ele>
        <time>2016-09-20T12:29:56Z</time>
      </trkpt>
      <trkpt lat="43.61519" lon="4.07778">
        <ele>-0.34</ele>
        <time>2016-09-20T12:30:13Z</time>
      </trkpt>
      <trkpt lat="43.61531" lon="4.07764">
        <ele>-1.79</ele>
        <time>2016-09-20T12:30:28Z</time>
      </trkpt>
      <trkpt lat="43.61545" lon="4.07749">
        <ele>-2.75</ele>
        <time>2016-09-20T12:30:44Z</time>
      </trkpt>
      <trkpt lat="43.61558" lon="4.07737">
        <ele>-2.75</ele>
        <time>2016-09-20T12:30:58Z</time>
      </trkpt>
      <trkpt lat="43.61571" lon="4.07723">
        <ele>-2.27</ele>
        <time>2016-09-20T12:31:13Z</time>
      </trkpt>
      <trkpt lat="43.61582" lon="4.07712">
        <ele>-2.27</ele>
        <time>2016-09-20T12:31:26Z</time>
      </trkpt>
      <trkpt lat="43.61597" lon="4.07697">
        <ele>-2.27</ele>
        <time>2016-09-20T12:31:43Z</time>
      </trkpt>
      <trkpt lat="43.61609" lon="4.07687">
        <ele>-0.34</ele>
        <time>2016-09-20T12:31:56Z</time>
      </trkpt>
      <trkpt lat="43.61613" lon="4.07682">
        <ele>-0.82</ele>
        <time>2016-09-20T12:32:01Z</time>
      </trkpt>
      <trkpt lat="43.61625" lon="4.07669">
        <ele>-1.3</ele>
        <time>2016-09-20T12:32:16Z</time>
      </trkpt>
      <trkpt lat="43.61638" lon="4.07657">
        <ele>-2.27</ele>
        <time>2016-09-20T12:32:30Z</time>
      </trkpt>
      <trkpt lat="43.61654" lon="4.07643">
        <ele>-0.82</ele>
        <time>2016-09-20T12:32:46Z</time>
      </trkpt>
      <trkpt lat="43.61668" lon="4.0763">
        <ele>-0.34</ele>
        <time>2016-09-20T12:33:01Z</time>
      </trkpt>
      <trkpt lat="43.61682" lon="4.07616">
        <ele>0.14</ele>
        <time>2016-09-20T12:33:17Z</time>
      </trkpt>
      <trkpt lat="43.61695" lon="4.07602">
        <ele>0.62</ele>
        <time>2016-09-20T12:33:32Z</time>
      </trkpt>
      <trkpt lat="43.61699" lon="4.07595">
        <ele>0.62</ele>
        <time>2016-09-20T12:33:40Z</time>
      </trkpt>
      <trkpt lat="43.6169" lon="4.07589">
        <ele>1.1</ele>
        <time>2016-09-20T12:33:54Z</time>
      </trkpt>
      <trkpt lat="43.61687" lon="4.07582">
        <ele>1.58</ele>
        <time>2016-09-20T12:34:01Z</time>
      </trkpt>
      <trkpt lat="43.61677" lon="4.07564">
        <ele>1.58</ele>
        <time>2016-09-20T12:34:19Z</time>
      </trkpt>
      <trkpt lat="43.61671" lon="4.07545">
        <ele>1.58</ele>
        <time>2016-09-20T12:34:34Z</time>
      </trkpt>
      <trkpt lat="43.61667" lon="4.0752">
        <ele>1.58</ele>
        <time>2016-09-20T12:34:52Z</time>
      </trkpt>
      <trkpt lat="43.61663" lon="4.07495">
        <ele>0.14</ele>
        <time>2016-09-20T12:35:08Z</time>
      </trkpt>
      <trkpt lat="43.61655" lon="4.07469">
        <ele>-0.34</ele>
        <time>2016-09-20T12:35:28Z</time>
      </trkpt>
      <trkpt lat="43.61645" lon="4.07448">
        <ele>-0.82</ele>
        <time>2016-09-20T12:35:45Z</time>
      </trkpt>
      <trkpt lat="43.61636" lon="4.07428">
        <ele>-0.34</ele>
        <time>2016-09-20T12:36:02Z</time>
      </trkpt>
      <trkpt lat="43.61628" lon="4.07416">
        <ele>0.14</ele>
        <time>2016-09-20T12:36:18Z</time>
      </trkpt>
      <trkpt lat="43.61623" lon="4.07412">
        <ele>-0.34</ele>
        <time>2016-09-20T12:36:24Z</time>
      </trkpt>
      <trkpt lat="43.61607" lon="4.07417">
        <ele>-0.82</ele>
        <time>2016-09-20T12:36:41Z</time>
      </trkpt>
      <trkpt lat="43.61605" lon="4.07416">
        <ele>-0.82</ele>
        <time>2016-09-20T12:36:44Z</time>
      </trkpt>
      <trkpt lat="43.61598" lon="4.07412">
        <ele>-1.3</ele>
        <time>2016-09-20T12:36:51Z</time>
      </trkpt>
      <trkpt lat="43.61588" lon="4.07396">
        <ele>-2.27</ele>
        <time>2016-09-20T12:37:07Z</time>
      </trkpt>
      <trkpt lat="43.61578" lon="4.07375">
        <ele>-1.3</ele>
        <time>2016-09-20T12:37:24Z</time>
      </trkpt>
      <trkpt lat="43.61563" lon="4.07364">
        <ele>-0.82</ele>
        <time>2016-09-20T12:37:40Z</time>
      </trkpt>
      <trkpt lat="43.6155" lon="4.07356">
        <ele>0.14</ele>
        <time>2016-09-20T12:37:54Z</time>
      </trkpt>
      <trkpt lat="43.61532" lon="4.07363">
        <ele>0.14</ele>
        <time>2016-09-20T12:38:10Z</time>
      </trkpt>
      <trkpt lat="43.61521" lon="4.07364">
        <ele>-0.34</ele>
        <time>2016-09-20T12:38:28Z</time>
      </trkpt>
      <trkpt lat="43.61514" lon="4.07357">
        <ele>0.62</ele>
        <time>2016-09-20T12:38:47Z</time>
      </trkpt>
      <trkpt lat="43.61512" lon="4.07358">
        <ele>1.1</ele>
        <time>2016-09-20T12:39:08Z</time>
      </trkpt>
      <trkpt lat="43.6151" lon="4.0736">
        <ele>1.58</ele>
        <time>2016-09-20T12:39:26Z</time>
      </trkpt>
      <trkpt lat="43.6151" lon="4.07352">
        <ele>-0.82</ele>
        <time>2016-09-20T12:39:40Z</time>
      </trkpt>
      <trkpt lat="43.61518" lon="4.07337">
        <ele>-1.79</ele>
        <time>2016-09-20T12:39:58Z</time>
      </trkpt>
      <trkpt lat="43.61523" lon="4.07317">
        <ele>-2.75</ele>
        <time>2016-09-20T12:40:16Z</time>
      </trkpt>
      <trkpt lat="43.61529" lon="4.07297">
        <ele>-1.79</ele>
        <time>2016-09-20T12:40:34Z</time>
      </trkpt>
      <trkpt lat="43.61538" lon="4.07278">
        <ele>-0.82</ele>
        <time>2016-09-20T12:40:52Z</time>
      </trkpt>
      <trkpt lat="43.61542" lon="4.07272">
        <ele>-0.82</ele>
        <time>2016-09-20T12:40:59Z</time>
      </trkpt>
      <trkpt lat="43.61555" lon="4.07257">
        <ele>-0.82</ele>
        <time>2016-09-20T12:41:17Z</time>
      </trkpt>
      <trkpt lat="43.61565" lon="4.07242">
        <ele>-0.82</ele>
        <time>2016-09-20T12:41:33Z</time>
      </trkpt>
      <trkpt lat="43.61576" lon="4.07223">
        <ele>-0.34</ele>
        <time>2016-09-20T12:41:53Z</time>
      </trkpt>
      <trkpt lat="43.61587" lon="4.07203">
        <ele>-0.34</ele>
        <time>2016-09-20T12:42:11Z</time>
      </trkpt>
      <trkpt lat="43.61601" lon="4.07178">
        <ele>0.14</ele>
        <time>2016-09-20T12:42:35Z</time>
      </trkpt>
      <trkpt lat="43.61615" lon="4.07158">
        <ele>0.14</ele>
        <time>2016-09-20T12:42:54Z</time>
      </trkpt>
      <trkpt lat="43.61627" lon="4.07135">
        <ele>1.1</ele>
        <time>2016-09-20T12:43:15Z</time>
      </trkpt>
      <trkpt lat="43.61637" lon="4.07116">
        <ele>0.62</ele>
        <time>2016-09-20T12:43:33Z</time>
      </trkpt>
      <trkpt lat="43.61649" lon="4.07096">
        <ele>0.14</ele>
        <time>2016-09-20T12:43:51Z</time>
      </trkpt>
      <trkpt lat="43.6166" lon="4.07079">
        <ele>-0.34</ele>
        <time>2016-09-20T12:44:08Z</time>
      </trkpt>
      <trkpt lat="43.61671" lon="4.07059">
        <ele>0.14</ele>
        <time>2016-09-20T12:44:25Z</time>
      </trkpt>
      <trkpt lat="43.61683" lon="4.07037">
        <ele>0.14</ele>
        <time>2016-09-20T12:44:43Z</time>
      </trkpt>
      <trkpt lat="43.61694" lon="4.07016">
        <ele>-0.82</ele>
        <time>2016-09-20T12:45:01Z</time>
      </trkpt>
      <trkpt lat="43.61708" lon="4.06996">
        <ele>-0.82</ele>
        <time>2016-09-20T12:45:21Z</time>
      </trkpt>
      <trkpt lat="43.61719" lon="4.06978">
        <ele>-1.3</ele>
        <time>2016-09-20T12:45:40Z</time>
      </trkpt>
      <trkpt lat="43.61732" lon="4.06958">
        <ele>-1.79</ele>
        <time>2016-09-20T12:46:02Z</time>
      </trkpt>
      <trkpt lat="43.6174" lon="4.06947">
        <ele>-1.3</ele>
        <time>2016-09-20T12:46:18Z</time>
      </trkpt>
      <trkpt lat="43.61755" lon="4.0693">
        <ele>-0.34</ele>
        <time>2016-09-20T12:46:39Z</time>
      </trkpt>
      <trkpt lat="43.61765" lon="4.06914">
        <ele>-1.3</ele>
        <time>2016-09-20T12:46:59Z</time>
      </trkpt>
      <trkpt lat="43.61779" lon="4.06896">
        <ele>-1.3</ele>
        <time>2016-09-20T12:47:19Z</time>
      </trkpt>
      <trkpt lat="43.61794" lon="4.06879">
        <ele>-2.75</ele>
        <time>2016-09-20T12:47:38Z</time>
      </trkpt>
      <trkpt lat="43.61797" lon="4.06874">
        <ele>-1.3</ele>
        <time>2016-09-20T12:47:55Z</time>
      </trkpt>
      <trkpt lat="43.61812" lon="4.06858">
        <ele>-0.34</ele>
        <time>2016-09-20T12:48:13Z</time>
      </trkpt>
      <trkpt lat="43.61822" lon="4.06842">
        <ele>-0.34</ele>
        <time>2016-09-20T12:48:30Z</time>
      </trkpt>
      <trkpt lat="43.61829" lon="4.06822">
        <ele>-0.34</ele>
        <time>2016-09-20T12:48:47Z</time>
      </trkpt>
      <trkpt lat="43.6184" lon="4.06816">
        <ele>-0.82</ele>
        <time>2016-09-20T12:49:02Z</time>
      </trkpt>
      <trkpt lat="43.61844" lon="4.06812">
        <ele>3.5</ele>
        <time>2016-09-20T12:49:22Z</time>
      </trkpt>
      <trkpt lat="43.61847" lon="4.06807">
        <ele>4.94</ele>
        <time>2016-09-20T12:49:39Z</time>
      </trkpt>
      <trkpt lat="43.61847" lon="4.06806">
        <ele>4.46</ele>
        <time>2016-09-20T12:50:02Z</time>
      </trkpt>
      <trkpt lat="43.61848" lon="4.06806">
        <ele>5.42</ele>
        <time>2016-09-20T12:50:27Z</time>
      </trkpt>
      <trkpt lat="43.61849" lon="4.06805">
        <ele>6.39</ele>
        <time>2016-09-20T12:50:56Z</time>
      </trkpt>
    </trkseg>
  </trk>
</gpx>